<?xml version="1.0" encoding="UTF-8" standalone="no" ?>
<gpx xmlns="http://www.topografix.com/GPX/1/1" xmlns:xsi="http://www.w3.org/2001/XMLSchema-instance" xsi:schemaLocation="http://www.topografix.com/GPX/1/1 http://www.topografix.com/GPX/1/1/gpx.xsd" version="1.1" creator="VisuGPX - https://www.visugpx.com">
  <metadata>
    <name>2021-03-20 le Hilsenfirst</name>
  </metadata>
  <trk>
    <name><![CDATA[2021-03-20 le Hilsenfirst]]></name>
    <extensions>
      <line xmlns="http://www.topografix.com/GPX/gpx_style/0/2">
        <color>0000FF</color>
        <opacity>0.59</opacity>
        <width>6.0</width>
      </line>
    </extensions>
    <trkseg>
      <trkpt lat="47.98043" lon="7.07817">
        <ele>863.5</ele>
        <time>2021-03-20T09:10:23.000Z</time>
      </trkpt>
      <trkpt lat="47.98032" lon="7.07812">
        <ele>866.1</ele>
        <time>2021-03-20T09:11:01.000Z</time>
      </trkpt>
      <trkpt lat="47.98039" lon="7.07822">
        <ele>864.8</ele>
        <time>2021-03-20T09:11:40.000Z</time>
      </trkpt>
      <trkpt lat="47.98037" lon="7.07835">
        <ele>865.7</ele>
        <time>2021-03-20T09:12:24.000Z</time>
      </trkpt>
      <trkpt lat="47.98038" lon="7.07849">
        <ele>865.8</ele>
        <time>2021-03-20T09:12:32.000Z</time>
      </trkpt>
      <trkpt lat="47.98043" lon="7.0786">
        <ele>864.5</ele>
        <time>2021-03-20T09:12:44.000Z</time>
      </trkpt>
      <trkpt lat="47.98047" lon="7.07873">
        <ele>863.6</ele>
        <time>2021-03-20T09:12:56.000Z</time>
      </trkpt>
      <trkpt lat="47.98045" lon="7.07887">
        <ele>864.2</ele>
        <time>2021-03-20T09:13:08.000Z</time>
      </trkpt>
      <trkpt lat="47.98043" lon="7.07901">
        <ele>865.1</ele>
        <time>2021-03-20T09:13:21.000Z</time>
      </trkpt>
      <trkpt lat="47.98042" lon="7.07915">
        <ele>865.5</ele>
        <time>2021-03-20T09:13:35.000Z</time>
      </trkpt>
      <trkpt lat="47.98035" lon="7.07925">
        <ele>867.5</ele>
        <time>2021-03-20T09:13:54.000Z</time>
      </trkpt>
      <trkpt lat="47.98028" lon="7.07933">
        <ele>869.7</ele>
        <time>2021-03-20T09:14:09.000Z</time>
      </trkpt>
      <trkpt lat="47.98021" lon="7.07942">
        <ele>871.6</ele>
        <time>2021-03-20T09:14:23.000Z</time>
      </trkpt>
      <trkpt lat="47.98014" lon="7.07952">
        <ele>873.4</ele>
        <time>2021-03-20T09:14:42.000Z</time>
      </trkpt>
      <trkpt lat="47.98006" lon="7.07963">
        <ele>875.6</ele>
        <time>2021-03-20T09:15:02.000Z</time>
      </trkpt>
      <trkpt lat="47.97997" lon="7.07968">
        <ele>877.9</ele>
        <time>2021-03-20T09:15:15.000Z</time>
      </trkpt>
      <trkpt lat="47.97988" lon="7.07974">
        <ele>880.5</ele>
        <time>2021-03-20T09:15:33.000Z</time>
      </trkpt>
      <trkpt lat="47.97981" lon="7.07983">
        <ele>882.7</ele>
        <time>2021-03-20T09:15:49.000Z</time>
      </trkpt>
      <trkpt lat="47.97971" lon="7.07987">
        <ele>885.9</ele>
        <time>2021-03-20T09:16:00.000Z</time>
      </trkpt>
      <trkpt lat="47.97978" lon="7.07994">
        <ele>883.6</ele>
        <time>2021-03-20T09:16:09.000Z</time>
      </trkpt>
      <trkpt lat="47.9798" lon="7.08007">
        <ele>883.1</ele>
        <time>2021-03-20T09:16:27.000Z</time>
      </trkpt>
      <trkpt lat="47.97973" lon="7.08016">
        <ele>885.3</ele>
        <time>2021-03-20T09:16:38.000Z</time>
      </trkpt>
      <trkpt lat="47.97965" lon="7.08025">
        <ele>887.6</ele>
        <time>2021-03-20T09:16:54.000Z</time>
      </trkpt>
      <trkpt lat="47.97957" lon="7.08032">
        <ele>890.1</ele>
        <time>2021-03-20T09:17:05.000Z</time>
      </trkpt>
      <trkpt lat="47.97948" lon="7.08032">
        <ele>892.8</ele>
        <time>2021-03-20T09:17:21.000Z</time>
      </trkpt>
      <trkpt lat="47.9794" lon="7.08023">
        <ele>895.2</ele>
        <time>2021-03-20T09:17:39.000Z</time>
      </trkpt>
      <trkpt lat="47.97934" lon="7.08012">
        <ele>897.2</ele>
        <time>2021-03-20T09:17:54.000Z</time>
      </trkpt>
      <trkpt lat="47.97926" lon="7.08003">
        <ele>899.9</ele>
        <time>2021-03-20T09:18:16.000Z</time>
      </trkpt>
      <trkpt lat="47.97921" lon="7.07991">
        <ele>901</ele>
        <time>2021-03-20T09:18:34.000Z</time>
      </trkpt>
      <trkpt lat="47.97915" lon="7.07981">
        <ele>902</ele>
        <time>2021-03-20T09:18:50.000Z</time>
      </trkpt>
      <trkpt lat="47.97906" lon="7.07969">
        <ele>903.9</ele>
        <time>2021-03-20T09:19:19.000Z</time>
      </trkpt>
      <trkpt lat="47.97895" lon="7.07964">
        <ele>906.7</ele>
        <time>2021-03-20T09:19:44.000Z</time>
      </trkpt>
      <trkpt lat="47.97887" lon="7.07958">
        <ele>908.5</ele>
        <time>2021-03-20T09:19:58.000Z</time>
      </trkpt>
      <trkpt lat="47.97879" lon="7.0795">
        <ele>910.1</ele>
        <time>2021-03-20T09:20:15.000Z</time>
      </trkpt>
      <trkpt lat="47.97872" lon="7.07935">
        <ele>911</ele>
        <time>2021-03-20T09:21:24.000Z</time>
      </trkpt>
      <trkpt lat="47.97864" lon="7.07928">
        <ele>913</ele>
        <time>2021-03-20T09:21:43.000Z</time>
      </trkpt>
      <trkpt lat="47.97855" lon="7.07921">
        <ele>915</ele>
        <time>2021-03-20T09:21:58.000Z</time>
      </trkpt>
      <trkpt lat="47.97846" lon="7.07917">
        <ele>917.4</ele>
        <time>2021-03-20T09:22:11.000Z</time>
      </trkpt>
      <trkpt lat="47.97837" lon="7.07913">
        <ele>919.6</ele>
        <time>2021-03-20T09:22:24.000Z</time>
      </trkpt>
      <trkpt lat="47.97829" lon="7.0791">
        <ele>922.3</ele>
        <time>2021-03-20T09:22:41.000Z</time>
      </trkpt>
      <trkpt lat="47.9782" lon="7.07907">
        <ele>925.4</ele>
        <time>2021-03-20T09:22:51.000Z</time>
      </trkpt>
      <trkpt lat="47.97814" lon="7.07896">
        <ele>926.8</ele>
        <time>2021-03-20T09:22:56.000Z</time>
      </trkpt>
      <trkpt lat="47.97805" lon="7.0789">
        <ele>929.6</ele>
        <time>2021-03-20T09:23:36.000Z</time>
      </trkpt>
      <trkpt lat="47.978" lon="7.07902">
        <ele>932.1</ele>
        <time>2021-03-20T09:23:53.000Z</time>
      </trkpt>
      <trkpt lat="47.97801" lon="7.07916">
        <ele>932.7</ele>
        <time>2021-03-20T09:24:03.000Z</time>
      </trkpt>
      <trkpt lat="47.97802" lon="7.0793">
        <ele>933.2</ele>
        <time>2021-03-20T09:24:15.000Z</time>
      </trkpt>
      <trkpt lat="47.97797" lon="7.07942">
        <ele>935.5</ele>
        <time>2021-03-20T09:24:31.000Z</time>
      </trkpt>
      <trkpt lat="47.97804" lon="7.07952">
        <ele>933.6</ele>
        <time>2021-03-20T09:24:42.000Z</time>
      </trkpt>
      <trkpt lat="47.9781" lon="7.07963">
        <ele>932.1</ele>
        <time>2021-03-20T09:24:58.000Z</time>
      </trkpt>
      <trkpt lat="47.97811" lon="7.07978">
        <ele>932.6</ele>
        <time>2021-03-20T09:25:12.000Z</time>
      </trkpt>
      <trkpt lat="47.97809" lon="7.07991">
        <ele>934.4</ele>
        <time>2021-03-20T09:26:33.000Z</time>
      </trkpt>
      <trkpt lat="47.97806" lon="7.08005">
        <ele>935.9</ele>
        <time>2021-03-20T09:26:50.000Z</time>
      </trkpt>
      <trkpt lat="47.97798" lon="7.08014">
        <ele>938.6</ele>
        <time>2021-03-20T09:27:06.000Z</time>
      </trkpt>
      <trkpt lat="47.97791" lon="7.08021">
        <ele>941.3</ele>
        <time>2021-03-20T09:27:20.000Z</time>
      </trkpt>
      <trkpt lat="47.97782" lon="7.08027">
        <ele>944.1</ele>
        <time>2021-03-20T09:27:38.000Z</time>
      </trkpt>
      <trkpt lat="47.97774" lon="7.08034">
        <ele>946.7</ele>
        <time>2021-03-20T09:27:51.000Z</time>
      </trkpt>
      <trkpt lat="47.97766" lon="7.08041">
        <ele>949.2</ele>
        <time>2021-03-20T09:28:06.000Z</time>
      </trkpt>
      <trkpt lat="47.97758" lon="7.08049">
        <ele>951.6</ele>
        <time>2021-03-20T09:28:29.000Z</time>
      </trkpt>
      <trkpt lat="47.97749" lon="7.08053">
        <ele>954.3</ele>
        <time>2021-03-20T09:28:44.000Z</time>
      </trkpt>
      <trkpt lat="47.9774" lon="7.08056">
        <ele>956.8</ele>
        <time>2021-03-20T09:28:56.000Z</time>
      </trkpt>
      <trkpt lat="47.97732" lon="7.08064">
        <ele>958.8</ele>
        <time>2021-03-20T09:29:40.000Z</time>
      </trkpt>
      <trkpt lat="47.97724" lon="7.08072">
        <ele>961</ele>
        <time>2021-03-20T09:29:58.000Z</time>
      </trkpt>
      <trkpt lat="47.97715" lon="7.08077">
        <ele>963.5</ele>
        <time>2021-03-20T09:30:10.000Z</time>
      </trkpt>
      <trkpt lat="47.97707" lon="7.08083">
        <ele>966</ele>
        <time>2021-03-20T09:30:29.000Z</time>
      </trkpt>
      <trkpt lat="47.97698" lon="7.08087">
        <ele>968.4</ele>
        <time>2021-03-20T09:30:43.000Z</time>
      </trkpt>
      <trkpt lat="47.97689" lon="7.08097">
        <ele>970.7</ele>
        <time>2021-03-20T09:31:04.000Z</time>
      </trkpt>
      <trkpt lat="47.97681" lon="7.08105">
        <ele>972.6</ele>
        <time>2021-03-20T09:31:20.000Z</time>
      </trkpt>
      <trkpt lat="47.97673" lon="7.08112">
        <ele>974.7</ele>
        <time>2021-03-20T09:31:38.000Z</time>
      </trkpt>
      <trkpt lat="47.97664" lon="7.08115">
        <ele>976.9</ele>
        <time>2021-03-20T09:31:56.000Z</time>
      </trkpt>
      <trkpt lat="47.97655" lon="7.08119">
        <ele>978.2</ele>
        <time>2021-03-20T09:32:28.000Z</time>
      </trkpt>
      <trkpt lat="47.97646" lon="7.08113">
        <ele>979.8</ele>
        <time>2021-03-20T09:32:41.000Z</time>
      </trkpt>
      <trkpt lat="47.97637" lon="7.08109">
        <ele>981.3</ele>
        <time>2021-03-20T09:32:55.000Z</time>
      </trkpt>
      <trkpt lat="47.97629" lon="7.08105">
        <ele>982.7</ele>
        <time>2021-03-20T09:33:06.000Z</time>
      </trkpt>
      <trkpt lat="47.97622" lon="7.08096">
        <ele>983.8</ele>
        <time>2021-03-20T09:33:24.000Z</time>
      </trkpt>
      <trkpt lat="47.97613" lon="7.08094">
        <ele>985.1</ele>
        <time>2021-03-20T09:33:35.000Z</time>
      </trkpt>
      <trkpt lat="47.97604" lon="7.08094">
        <ele>986.4</ele>
        <time>2021-03-20T09:33:51.000Z</time>
      </trkpt>
      <trkpt lat="47.97595" lon="7.0809">
        <ele>987.6</ele>
        <time>2021-03-20T09:34:02.000Z</time>
      </trkpt>
      <trkpt lat="47.97586" lon="7.08086">
        <ele>988.8</ele>
        <time>2021-03-20T09:34:17.000Z</time>
      </trkpt>
      <trkpt lat="47.97576" lon="7.08084">
        <ele>991.4</ele>
        <time>2021-03-20T09:35:03.000Z</time>
      </trkpt>
      <trkpt lat="47.97577" lon="7.08097">
        <ele>991.5</ele>
        <time>2021-03-20T09:37:44.000Z</time>
      </trkpt>
      <trkpt lat="47.97572" lon="7.0811">
        <ele>993.1</ele>
        <time>2021-03-20T09:37:57.000Z</time>
      </trkpt>
      <trkpt lat="47.97568" lon="7.08122">
        <ele>994.9</ele>
        <time>2021-03-20T09:38:08.000Z</time>
      </trkpt>
      <trkpt lat="47.97563" lon="7.08135">
        <ele>996.6</ele>
        <time>2021-03-20T09:38:23.000Z</time>
      </trkpt>
      <trkpt lat="47.97557" lon="7.08145">
        <ele>998.6</ele>
        <time>2021-03-20T09:38:36.000Z</time>
      </trkpt>
      <trkpt lat="47.9755" lon="7.08154">
        <ele>1000.8</ele>
        <time>2021-03-20T09:38:48.000Z</time>
      </trkpt>
      <trkpt lat="47.97543" lon="7.08164">
        <ele>1003.1</ele>
        <time>2021-03-20T09:39:15.000Z</time>
      </trkpt>
      <trkpt lat="47.97536" lon="7.08172">
        <ele>1005.1</ele>
        <time>2021-03-20T09:39:30.000Z</time>
      </trkpt>
      <trkpt lat="47.97528" lon="7.0818">
        <ele>1007.1</ele>
        <time>2021-03-20T09:39:44.000Z</time>
      </trkpt>
      <trkpt lat="47.97518" lon="7.0818">
        <ele>1009.9</ele>
        <time>2021-03-20T09:40:09.000Z</time>
      </trkpt>
      <trkpt lat="47.97509" lon="7.08178">
        <ele>1012.7</ele>
        <time>2021-03-20T09:40:21.000Z</time>
      </trkpt>
      <trkpt lat="47.975" lon="7.08174">
        <ele>1015.7</ele>
        <time>2021-03-20T09:40:40.000Z</time>
      </trkpt>
      <trkpt lat="47.97491" lon="7.0817">
        <ele>1019.7</ele>
        <time>2021-03-20T09:40:53.000Z</time>
      </trkpt>
      <trkpt lat="47.97482" lon="7.08167">
        <ele>1023.6</ele>
        <time>2021-03-20T09:41:09.000Z</time>
      </trkpt>
      <trkpt lat="47.97473" lon="7.08166">
        <ele>1027.6</ele>
        <time>2021-03-20T09:41:22.000Z</time>
      </trkpt>
      <trkpt lat="47.97465" lon="7.08173">
        <ele>1030.3</ele>
        <time>2021-03-20T09:41:39.000Z</time>
      </trkpt>
      <trkpt lat="47.9746" lon="7.08185">
        <ele>1031.7</ele>
        <time>2021-03-20T09:42:15.000Z</time>
      </trkpt>
      <trkpt lat="47.97462" lon="7.08199">
        <ele>1030</ele>
        <time>2021-03-20T09:42:26.000Z</time>
      </trkpt>
      <trkpt lat="47.97458" lon="7.08213">
        <ele>1030.4</ele>
        <time>2021-03-20T09:42:48.000Z</time>
      </trkpt>
      <trkpt lat="47.97456" lon="7.08226">
        <ele>1030.6</ele>
        <time>2021-03-20T09:42:58.000Z</time>
      </trkpt>
      <trkpt lat="47.97453" lon="7.08239">
        <ele>1030.6</ele>
        <time>2021-03-20T09:43:13.000Z</time>
      </trkpt>
      <trkpt lat="47.9745" lon="7.08252">
        <ele>1031</ele>
        <time>2021-03-20T09:43:23.000Z</time>
      </trkpt>
      <trkpt lat="47.97447" lon="7.08266">
        <ele>1031.4</ele>
        <time>2021-03-20T09:43:37.000Z</time>
      </trkpt>
      <trkpt lat="47.97443" lon="7.08279">
        <ele>1032</ele>
        <time>2021-03-20T09:43:49.000Z</time>
      </trkpt>
      <trkpt lat="47.9744" lon="7.08291">
        <ele>1032.6</ele>
        <time>2021-03-20T09:44:00.000Z</time>
      </trkpt>
      <trkpt lat="47.97437" lon="7.08305">
        <ele>1032.9</ele>
        <time>2021-03-20T09:44:16.000Z</time>
      </trkpt>
      <trkpt lat="47.97435" lon="7.08319">
        <ele>1033.2</ele>
        <time>2021-03-20T09:44:29.000Z</time>
      </trkpt>
      <trkpt lat="47.97431" lon="7.08332">
        <ele>1033.8</ele>
        <time>2021-03-20T09:44:39.000Z</time>
      </trkpt>
      <trkpt lat="47.97426" lon="7.08344">
        <ele>1034.9</ele>
        <time>2021-03-20T09:44:54.000Z</time>
      </trkpt>
      <trkpt lat="47.97424" lon="7.08358">
        <ele>1034.6</ele>
        <time>2021-03-20T09:45:06.000Z</time>
      </trkpt>
      <trkpt lat="47.9742" lon="7.08371">
        <ele>1034.9</ele>
        <time>2021-03-20T09:45:16.000Z</time>
      </trkpt>
      <trkpt lat="47.97417" lon="7.08385">
        <ele>1034.9</ele>
        <time>2021-03-20T09:45:28.000Z</time>
      </trkpt>
      <trkpt lat="47.97414" lon="7.08398">
        <ele>1034.7</ele>
        <time>2021-03-20T09:45:39.000Z</time>
      </trkpt>
      <trkpt lat="47.9741" lon="7.0841">
        <ele>1035.1</ele>
        <time>2021-03-20T09:45:50.000Z</time>
      </trkpt>
      <trkpt lat="47.97405" lon="7.08422">
        <ele>1035.8</ele>
        <time>2021-03-20T09:46:04.000Z</time>
      </trkpt>
      <trkpt lat="47.97399" lon="7.08432">
        <ele>1036.5</ele>
        <time>2021-03-20T09:46:15.000Z</time>
      </trkpt>
      <trkpt lat="47.97393" lon="7.08442">
        <ele>1037.6</ele>
        <time>2021-03-20T09:46:27.000Z</time>
      </trkpt>
      <trkpt lat="47.97387" lon="7.08453">
        <ele>1038.8</ele>
        <time>2021-03-20T09:46:42.000Z</time>
      </trkpt>
      <trkpt lat="47.9738" lon="7.08464">
        <ele>1039.9</ele>
        <time>2021-03-20T09:46:55.000Z</time>
      </trkpt>
      <trkpt lat="47.97375" lon="7.08476">
        <ele>1040.6</ele>
        <time>2021-03-20T09:47:05.000Z</time>
      </trkpt>
      <trkpt lat="47.9737" lon="7.08487">
        <ele>1041.1</ele>
        <time>2021-03-20T09:47:18.000Z</time>
      </trkpt>
      <trkpt lat="47.97364" lon="7.08498">
        <ele>1042.6</ele>
        <time>2021-03-20T09:47:28.000Z</time>
      </trkpt>
      <trkpt lat="47.97357" lon="7.08507">
        <ele>1043.7</ele>
        <time>2021-03-20T09:47:40.000Z</time>
      </trkpt>
      <trkpt lat="47.9735" lon="7.08516">
        <ele>1044.7</ele>
        <time>2021-03-20T09:47:51.000Z</time>
      </trkpt>
      <trkpt lat="47.97344" lon="7.08526">
        <ele>1045.3</ele>
        <time>2021-03-20T09:48:02.000Z</time>
      </trkpt>
      <trkpt lat="47.97336" lon="7.08535">
        <ele>1046.4</ele>
        <time>2021-03-20T09:48:16.000Z</time>
      </trkpt>
      <trkpt lat="47.97328" lon="7.08541">
        <ele>1046.8</ele>
        <time>2021-03-20T09:48:28.000Z</time>
      </trkpt>
      <trkpt lat="47.97318" lon="7.08545">
        <ele>1047.1</ele>
        <time>2021-03-20T09:48:43.000Z</time>
      </trkpt>
      <trkpt lat="47.97309" lon="7.08546">
        <ele>1048</ele>
        <time>2021-03-20T09:48:59.000Z</time>
      </trkpt>
      <trkpt lat="47.973" lon="7.08545">
        <ele>1049.1</ele>
        <time>2021-03-20T09:49:12.000Z</time>
      </trkpt>
      <trkpt lat="47.97291" lon="7.08542">
        <ele>1051</ele>
        <time>2021-03-20T09:49:28.000Z</time>
      </trkpt>
      <trkpt lat="47.97282" lon="7.08539">
        <ele>1053</ele>
        <time>2021-03-20T09:49:45.000Z</time>
      </trkpt>
      <trkpt lat="47.97273" lon="7.08536">
        <ele>1054.8</ele>
        <time>2021-03-20T09:50:02.000Z</time>
      </trkpt>
      <trkpt lat="47.97264" lon="7.08532">
        <ele>1057.1</ele>
        <time>2021-03-20T09:50:14.000Z</time>
      </trkpt>
      <trkpt lat="47.97254" lon="7.08528">
        <ele>1059.8</ele>
        <time>2021-03-20T09:50:28.000Z</time>
      </trkpt>
      <trkpt lat="47.97246" lon="7.0852">
        <ele>1062.8</ele>
        <time>2021-03-20T09:50:41.000Z</time>
      </trkpt>
      <trkpt lat="47.97237" lon="7.08518">
        <ele>1063.5</ele>
        <time>2021-03-20T09:50:54.000Z</time>
      </trkpt>
      <trkpt lat="47.97229" lon="7.0851">
        <ele>1065.6</ele>
        <time>2021-03-20T09:51:08.000Z</time>
      </trkpt>
      <trkpt lat="47.97219" lon="7.08506">
        <ele>1066.9</ele>
        <time>2021-03-20T09:51:23.000Z</time>
      </trkpt>
      <trkpt lat="47.97211" lon="7.08502">
        <ele>1067.9</ele>
        <time>2021-03-20T09:51:40.000Z</time>
      </trkpt>
      <trkpt lat="47.97203" lon="7.08495">
        <ele>1069.7</ele>
        <time>2021-03-20T09:52:00.000Z</time>
      </trkpt>
      <trkpt lat="47.97195" lon="7.08489">
        <ele>1071.5</ele>
        <time>2021-03-20T09:52:14.000Z</time>
      </trkpt>
      <trkpt lat="47.97186" lon="7.08485">
        <ele>1072.8</ele>
        <time>2021-03-20T09:52:29.000Z</time>
      </trkpt>
      <trkpt lat="47.97177" lon="7.08484">
        <ele>1073.2</ele>
        <time>2021-03-20T09:52:46.000Z</time>
      </trkpt>
      <trkpt lat="47.97168" lon="7.08479">
        <ele>1074.9</ele>
        <time>2021-03-20T09:53:02.000Z</time>
      </trkpt>
      <trkpt lat="47.97159" lon="7.08475">
        <ele>1076.7</ele>
        <time>2021-03-20T09:53:23.000Z</time>
      </trkpt>
      <trkpt lat="47.9715" lon="7.08471">
        <ele>1079</ele>
        <time>2021-03-20T09:53:37.000Z</time>
      </trkpt>
      <trkpt lat="47.97141" lon="7.08467">
        <ele>1081.2</ele>
        <time>2021-03-20T09:53:55.000Z</time>
      </trkpt>
      <trkpt lat="47.97132" lon="7.08467">
        <ele>1082.3</ele>
        <time>2021-03-20T09:54:14.000Z</time>
      </trkpt>
      <trkpt lat="47.97123" lon="7.08469">
        <ele>1082.4</ele>
        <time>2021-03-20T09:54:55.000Z</time>
      </trkpt>
      <trkpt lat="47.97114" lon="7.08465">
        <ele>1084.5</ele>
        <time>2021-03-20T09:55:05.000Z</time>
      </trkpt>
      <trkpt lat="47.97104" lon="7.08467">
        <ele>1084.8</ele>
        <time>2021-03-20T09:55:19.000Z</time>
      </trkpt>
      <trkpt lat="47.97097" lon="7.08475">
        <ele>1082.8</ele>
        <time>2021-03-20T09:55:29.000Z</time>
      </trkpt>
      <trkpt lat="47.97088" lon="7.08478">
        <ele>1082.6</ele>
        <time>2021-03-20T09:55:40.000Z</time>
      </trkpt>
      <trkpt lat="47.97079" lon="7.0848">
        <ele>1083.2</ele>
        <time>2021-03-20T09:55:54.000Z</time>
      </trkpt>
      <trkpt lat="47.9707" lon="7.08485">
        <ele>1083.2</ele>
        <time>2021-03-20T09:56:05.000Z</time>
      </trkpt>
      <trkpt lat="47.97061" lon="7.0849">
        <ele>1083.2</ele>
        <time>2021-03-20T09:56:13.000Z</time>
      </trkpt>
      <trkpt lat="47.97053" lon="7.08497">
        <ele>1082.3</ele>
        <time>2021-03-20T09:56:27.000Z</time>
      </trkpt>
      <trkpt lat="47.97045" lon="7.08501">
        <ele>1082.7</ele>
        <time>2021-03-20T09:56:41.000Z</time>
      </trkpt>
      <trkpt lat="47.97036" lon="7.08507">
        <ele>1083.2</ele>
        <time>2021-03-20T09:56:51.000Z</time>
      </trkpt>
      <trkpt lat="47.97028" lon="7.08512">
        <ele>1083.9</ele>
        <time>2021-03-20T09:57:07.000Z</time>
      </trkpt>
      <trkpt lat="47.97019" lon="7.08518">
        <ele>1084.5</ele>
        <time>2021-03-20T09:57:20.000Z</time>
      </trkpt>
      <trkpt lat="47.97012" lon="7.08526">
        <ele>1084.7</ele>
        <time>2021-03-20T09:57:37.000Z</time>
      </trkpt>
      <trkpt lat="47.97004" lon="7.08532">
        <ele>1085.4</ele>
        <time>2021-03-20T09:57:48.000Z</time>
      </trkpt>
      <trkpt lat="47.96996" lon="7.0854">
        <ele>1086.4</ele>
        <time>2021-03-20T09:58:02.000Z</time>
      </trkpt>
      <trkpt lat="47.96988" lon="7.08548">
        <ele>1087.9</ele>
        <time>2021-03-20T09:58:13.000Z</time>
      </trkpt>
      <trkpt lat="47.96981" lon="7.08558">
        <ele>1088.5</ele>
        <time>2021-03-20T09:58:25.000Z</time>
      </trkpt>
      <trkpt lat="47.96979" lon="7.08572">
        <ele>1086.8</ele>
        <time>2021-03-20T09:58:37.000Z</time>
      </trkpt>
      <trkpt lat="47.96975" lon="7.08585">
        <ele>1085.8</ele>
        <time>2021-03-20T09:58:50.000Z</time>
      </trkpt>
      <trkpt lat="47.9697" lon="7.08596">
        <ele>1085.7</ele>
        <time>2021-03-20T09:59:04.000Z</time>
      </trkpt>
      <trkpt lat="47.96965" lon="7.08584">
        <ele>1089.4</ele>
        <time>2021-03-20T10:02:02.000Z</time>
      </trkpt>
      <trkpt lat="47.9697" lon="7.08596">
        <ele>1085.7</ele>
        <time>2021-03-20T10:02:08.000Z</time>
      </trkpt>
      <trkpt lat="47.96963" lon="7.08606">
        <ele>1086.4</ele>
        <time>2021-03-20T10:13:21.000Z</time>
      </trkpt>
      <trkpt lat="47.96958" lon="7.08617">
        <ele>1086.5</ele>
        <time>2021-03-20T10:13:30.000Z</time>
      </trkpt>
      <trkpt lat="47.96953" lon="7.08628">
        <ele>1086.6</ele>
        <time>2021-03-20T10:13:45.000Z</time>
      </trkpt>
      <trkpt lat="47.96944" lon="7.0863">
        <ele>1090</ele>
        <time>2021-03-20T10:14:14.000Z</time>
      </trkpt>
      <trkpt lat="47.96938" lon="7.08641">
        <ele>1090.5</ele>
        <time>2021-03-20T10:14:27.000Z</time>
      </trkpt>
      <trkpt lat="47.96931" lon="7.08651">
        <ele>1091.4</ele>
        <time>2021-03-20T10:14:42.000Z</time>
      </trkpt>
      <trkpt lat="47.96925" lon="7.08662">
        <ele>1092.3</ele>
        <time>2021-03-20T10:14:55.000Z</time>
      </trkpt>
      <trkpt lat="47.96918" lon="7.08672">
        <ele>1093.9</ele>
        <time>2021-03-20T10:15:08.000Z</time>
      </trkpt>
      <trkpt lat="47.96913" lon="7.08684">
        <ele>1095.4</ele>
        <time>2021-03-20T10:17:22.000Z</time>
      </trkpt>
      <trkpt lat="47.96906" lon="7.08693">
        <ele>1097.8</ele>
        <time>2021-03-20T10:17:37.000Z</time>
      </trkpt>
      <trkpt lat="47.96903" lon="7.08705">
        <ele>1098.5</ele>
        <time>2021-03-20T10:18:57.000Z</time>
      </trkpt>
      <trkpt lat="47.96896" lon="7.08715">
        <ele>1100.7</ele>
        <time>2021-03-20T10:19:09.000Z</time>
      </trkpt>
      <trkpt lat="47.96891" lon="7.08727">
        <ele>1101.8</ele>
        <time>2021-03-20T10:19:30.000Z</time>
      </trkpt>
      <trkpt lat="47.96885" lon="7.08738">
        <ele>1103.1</ele>
        <time>2021-03-20T10:19:43.000Z</time>
      </trkpt>
      <trkpt lat="47.96881" lon="7.08749">
        <ele>1104</ele>
        <time>2021-03-20T10:19:57.000Z</time>
      </trkpt>
      <trkpt lat="47.96876" lon="7.08762">
        <ele>1105.5</ele>
        <time>2021-03-20T10:20:15.000Z</time>
      </trkpt>
      <trkpt lat="47.96876" lon="7.08776">
        <ele>1104.7</ele>
        <time>2021-03-20T10:20:28.000Z</time>
      </trkpt>
      <trkpt lat="47.96873" lon="7.0879">
        <ele>1105.4</ele>
        <time>2021-03-20T10:20:41.000Z</time>
      </trkpt>
      <trkpt lat="47.96868" lon="7.08801">
        <ele>1107.1</ele>
        <time>2021-03-20T10:20:52.000Z</time>
      </trkpt>
      <trkpt lat="47.96863" lon="7.08814">
        <ele>1108.6</ele>
        <time>2021-03-20T10:21:08.000Z</time>
      </trkpt>
      <trkpt lat="47.9686" lon="7.08827">
        <ele>1109.1</ele>
        <time>2021-03-20T10:21:24.000Z</time>
      </trkpt>
      <trkpt lat="47.96859" lon="7.08841">
        <ele>1109.2</ele>
        <time>2021-03-20T10:21:37.000Z</time>
      </trkpt>
      <trkpt lat="47.96856" lon="7.08854">
        <ele>1110.6</ele>
        <time>2021-03-20T10:21:53.000Z</time>
      </trkpt>
      <trkpt lat="47.96853" lon="7.08867">
        <ele>1111.7</ele>
        <time>2021-03-20T10:22:07.000Z</time>
      </trkpt>
      <trkpt lat="47.96851" lon="7.08881">
        <ele>1112.9</ele>
        <time>2021-03-20T10:22:31.000Z</time>
      </trkpt>
      <trkpt lat="47.96851" lon="7.08895">
        <ele>1112.5</ele>
        <time>2021-03-20T10:22:48.000Z</time>
      </trkpt>
      <trkpt lat="47.96846" lon="7.08906">
        <ele>1115</ele>
        <time>2021-03-20T10:23:00.000Z</time>
      </trkpt>
      <trkpt lat="47.96842" lon="7.0892">
        <ele>1116.8</ele>
        <time>2021-03-20T10:23:12.000Z</time>
      </trkpt>
      <trkpt lat="47.9684" lon="7.08934">
        <ele>1117.9</ele>
        <time>2021-03-20T10:23:24.000Z</time>
      </trkpt>
      <trkpt lat="47.96839" lon="7.08947">
        <ele>1118.4</ele>
        <time>2021-03-20T10:23:39.000Z</time>
      </trkpt>
      <trkpt lat="47.9684" lon="7.08961">
        <ele>1117.9</ele>
        <time>2021-03-20T10:23:52.000Z</time>
      </trkpt>
      <trkpt lat="47.96837" lon="7.08974">
        <ele>1119.5</ele>
        <time>2021-03-20T10:24:04.000Z</time>
      </trkpt>
      <trkpt lat="47.96836" lon="7.08987">
        <ele>1119.8</ele>
        <time>2021-03-20T10:24:17.000Z</time>
      </trkpt>
      <trkpt lat="47.96832" lon="7.09">
        <ele>1121.6</ele>
        <time>2021-03-20T10:24:29.000Z</time>
      </trkpt>
      <trkpt lat="47.9683" lon="7.09013">
        <ele>1122.9</ele>
        <time>2021-03-20T10:24:41.000Z</time>
      </trkpt>
      <trkpt lat="47.9683" lon="7.09028">
        <ele>1123.2</ele>
        <time>2021-03-20T10:24:51.000Z</time>
      </trkpt>
      <trkpt lat="47.96828" lon="7.09042">
        <ele>1124</ele>
        <time>2021-03-20T10:25:05.000Z</time>
      </trkpt>
      <trkpt lat="47.96828" lon="7.09056">
        <ele>1124.3</ele>
        <time>2021-03-20T10:25:20.000Z</time>
      </trkpt>
      <trkpt lat="47.96825" lon="7.0907">
        <ele>1125.7</ele>
        <time>2021-03-20T10:25:32.000Z</time>
      </trkpt>
      <trkpt lat="47.96826" lon="7.09083">
        <ele>1125.6</ele>
        <time>2021-03-20T10:25:44.000Z</time>
      </trkpt>
      <trkpt lat="47.96824" lon="7.09096">
        <ele>1126.9</ele>
        <time>2021-03-20T10:25:57.000Z</time>
      </trkpt>
      <trkpt lat="47.96823" lon="7.09111">
        <ele>1128.1</ele>
        <time>2021-03-20T10:26:12.000Z</time>
      </trkpt>
      <trkpt lat="47.96824" lon="7.09125">
        <ele>1128.6</ele>
        <time>2021-03-20T10:26:26.000Z</time>
      </trkpt>
      <trkpt lat="47.96824" lon="7.0914">
        <ele>1129</ele>
        <time>2021-03-20T10:26:43.000Z</time>
      </trkpt>
      <trkpt lat="47.96828" lon="7.09154">
        <ele>1128.4</ele>
        <time>2021-03-20T10:26:56.000Z</time>
      </trkpt>
      <trkpt lat="47.96829" lon="7.09168">
        <ele>1128.9</ele>
        <time>2021-03-20T10:27:06.000Z</time>
      </trkpt>
      <trkpt lat="47.96832" lon="7.0918">
        <ele>1128.2</ele>
        <time>2021-03-20T10:27:18.000Z</time>
      </trkpt>
      <trkpt lat="47.96835" lon="7.09193">
        <ele>1127.8</ele>
        <time>2021-03-20T10:27:30.000Z</time>
      </trkpt>
      <trkpt lat="47.96836" lon="7.09207">
        <ele>1128.5</ele>
        <time>2021-03-20T10:27:43.000Z</time>
      </trkpt>
      <trkpt lat="47.96839" lon="7.0922">
        <ele>1127.8</ele>
        <time>2021-03-20T10:27:56.000Z</time>
      </trkpt>
      <trkpt lat="47.96842" lon="7.09232">
        <ele>1127.3</ele>
        <time>2021-03-20T10:28:09.000Z</time>
      </trkpt>
      <trkpt lat="47.96848" lon="7.09244">
        <ele>1125.8</ele>
        <time>2021-03-20T10:28:20.000Z</time>
      </trkpt>
      <trkpt lat="47.96851" lon="7.09257">
        <ele>1125.9</ele>
        <time>2021-03-20T10:28:33.000Z</time>
      </trkpt>
      <trkpt lat="47.96855" lon="7.09269">
        <ele>1126.3</ele>
        <time>2021-03-20T10:28:47.000Z</time>
      </trkpt>
      <trkpt lat="47.96859" lon="7.09282">
        <ele>1126.7</ele>
        <time>2021-03-20T10:29:00.000Z</time>
      </trkpt>
      <trkpt lat="47.96861" lon="7.09295">
        <ele>1128.5</ele>
        <time>2021-03-20T10:29:12.000Z</time>
      </trkpt>
      <trkpt lat="47.96863" lon="7.09308">
        <ele>1129.6</ele>
        <time>2021-03-20T10:29:27.000Z</time>
      </trkpt>
      <trkpt lat="47.96868" lon="7.0932">
        <ele>1129.4</ele>
        <time>2021-03-20T10:29:39.000Z</time>
      </trkpt>
      <trkpt lat="47.96873" lon="7.09332">
        <ele>1129.4</ele>
        <time>2021-03-20T10:29:55.000Z</time>
      </trkpt>
      <trkpt lat="47.96879" lon="7.09344">
        <ele>1128.7</ele>
        <time>2021-03-20T10:30:48.000Z</time>
      </trkpt>
      <trkpt lat="47.96888" lon="7.0935">
        <ele>1126.5</ele>
        <time>2021-03-20T10:30:55.000Z</time>
      </trkpt>
      <trkpt lat="47.96897" lon="7.09354">
        <ele>1123.8</ele>
        <time>2021-03-20T10:31:06.000Z</time>
      </trkpt>
      <trkpt lat="47.96902" lon="7.09365">
        <ele>1123.7</ele>
        <time>2021-03-20T10:31:14.000Z</time>
      </trkpt>
      <trkpt lat="47.9691" lon="7.09375">
        <ele>1122.9</ele>
        <time>2021-03-20T10:31:22.000Z</time>
      </trkpt>
      <trkpt lat="47.96917" lon="7.09385">
        <ele>1122.2</ele>
        <time>2021-03-20T10:31:31.000Z</time>
      </trkpt>
      <trkpt lat="47.96924" lon="7.09395">
        <ele>1120.6</ele>
        <time>2021-03-20T10:31:42.000Z</time>
      </trkpt>
      <trkpt lat="47.96928" lon="7.09406">
        <ele>1120.5</ele>
        <time>2021-03-20T10:31:53.000Z</time>
      </trkpt>
      <trkpt lat="47.96934" lon="7.09416">
        <ele>1119.3</ele>
        <time>2021-03-20T10:32:02.000Z</time>
      </trkpt>
      <trkpt lat="47.96939" lon="7.0943">
        <ele>1117.6</ele>
        <time>2021-03-20T10:32:13.000Z</time>
      </trkpt>
      <trkpt lat="47.96939" lon="7.09443">
        <ele>1118.3</ele>
        <time>2021-03-20T10:32:22.000Z</time>
      </trkpt>
      <trkpt lat="47.96939" lon="7.09458">
        <ele>1119</ele>
        <time>2021-03-20T10:32:33.000Z</time>
      </trkpt>
      <trkpt lat="47.96937" lon="7.09472">
        <ele>1120.5</ele>
        <time>2021-03-20T10:32:50.000Z</time>
      </trkpt>
      <trkpt lat="47.9694" lon="7.09486">
        <ele>1119.6</ele>
        <time>2021-03-20T10:33:01.000Z</time>
      </trkpt>
      <trkpt lat="47.96942" lon="7.095">
        <ele>1119.3</ele>
        <time>2021-03-20T10:33:08.000Z</time>
      </trkpt>
      <trkpt lat="47.9694" lon="7.09514">
        <ele>1120.4</ele>
        <time>2021-03-20T10:33:20.000Z</time>
      </trkpt>
      <trkpt lat="47.96938" lon="7.09528">
        <ele>1121.8</ele>
        <time>2021-03-20T10:33:31.000Z</time>
      </trkpt>
      <trkpt lat="47.96939" lon="7.09541">
        <ele>1121.7</ele>
        <time>2021-03-20T10:33:46.000Z</time>
      </trkpt>
      <trkpt lat="47.96939" lon="7.09555">
        <ele>1121.9</ele>
        <time>2021-03-20T10:34:02.000Z</time>
      </trkpt>
      <trkpt lat="47.96938" lon="7.09569">
        <ele>1122.5</ele>
        <time>2021-03-20T10:34:17.000Z</time>
      </trkpt>
      <trkpt lat="47.9694" lon="7.09582">
        <ele>1122.1</ele>
        <time>2021-03-20T10:34:29.000Z</time>
      </trkpt>
      <trkpt lat="47.96945" lon="7.09595">
        <ele>1120.5</ele>
        <time>2021-03-20T10:34:38.000Z</time>
      </trkpt>
      <trkpt lat="47.96949" lon="7.09609">
        <ele>1119.3</ele>
        <time>2021-03-20T10:34:46.000Z</time>
      </trkpt>
      <trkpt lat="47.96949" lon="7.09623">
        <ele>1119.2</ele>
        <time>2021-03-20T10:34:55.000Z</time>
      </trkpt>
      <trkpt lat="47.96944" lon="7.09634">
        <ele>1120.3</ele>
        <time>2021-03-20T10:35:06.000Z</time>
      </trkpt>
      <trkpt lat="47.96948" lon="7.09647">
        <ele>1119.4</ele>
        <time>2021-03-20T10:35:21.000Z</time>
      </trkpt>
      <trkpt lat="47.96951" lon="7.09661">
        <ele>1118.9</ele>
        <time>2021-03-20T10:35:33.000Z</time>
      </trkpt>
      <trkpt lat="47.96952" lon="7.09675">
        <ele>1118.8</ele>
        <time>2021-03-20T10:35:53.000Z</time>
      </trkpt>
      <trkpt lat="47.96957" lon="7.09687">
        <ele>1118.3</ele>
        <time>2021-03-20T10:36:02.000Z</time>
      </trkpt>
      <trkpt lat="47.96962" lon="7.097">
        <ele>1117.9</ele>
        <time>2021-03-20T10:36:12.000Z</time>
      </trkpt>
      <trkpt lat="47.96965" lon="7.09713">
        <ele>1117.9</ele>
        <time>2021-03-20T10:36:26.000Z</time>
      </trkpt>
      <trkpt lat="47.96962" lon="7.09727">
        <ele>1118.6</ele>
        <time>2021-03-20T10:36:37.000Z</time>
      </trkpt>
      <trkpt lat="47.96956" lon="7.09738">
        <ele>1119.4</ele>
        <time>2021-03-20T10:36:49.000Z</time>
      </trkpt>
      <trkpt lat="47.96953" lon="7.09752">
        <ele>1119.8</ele>
        <time>2021-03-20T10:37:02.000Z</time>
      </trkpt>
      <trkpt lat="47.96949" lon="7.09765">
        <ele>1120.1</ele>
        <time>2021-03-20T10:37:11.000Z</time>
      </trkpt>
      <trkpt lat="47.96945" lon="7.09777">
        <ele>1120.2</ele>
        <time>2021-03-20T10:37:19.000Z</time>
      </trkpt>
      <trkpt lat="47.9694" lon="7.09788">
        <ele>1120.3</ele>
        <time>2021-03-20T10:37:36.000Z</time>
      </trkpt>
      <trkpt lat="47.96937" lon="7.09802">
        <ele>1120.3</ele>
        <time>2021-03-20T10:39:21.000Z</time>
      </trkpt>
      <trkpt lat="47.96932" lon="7.09814">
        <ele>1120.3</ele>
        <time>2021-03-20T10:39:30.000Z</time>
      </trkpt>
      <trkpt lat="47.9693" lon="7.09827">
        <ele>1120.1</ele>
        <time>2021-03-20T10:39:48.000Z</time>
      </trkpt>
      <trkpt lat="47.96925" lon="7.09839">
        <ele>1119.7</ele>
        <time>2021-03-20T10:40:00.000Z</time>
      </trkpt>
      <trkpt lat="47.96951" lon="7.09854">
        <ele>1119.6</ele>
        <time>2021-03-20T10:44:20.000Z</time>
      </trkpt>
      <trkpt lat="47.9698" lon="7.09845">
        <ele>1120.1</ele>
        <time>2021-03-20T10:44:25.000Z</time>
      </trkpt>
      <trkpt lat="47.96999" lon="7.0985">
        <ele>1120.6</ele>
        <time>2021-03-20T10:44:30.000Z</time>
      </trkpt>
      <trkpt lat="47.9699" lon="7.0985">
        <ele>1120.4</ele>
        <time>2021-03-20T10:44:47.000Z</time>
      </trkpt>
      <trkpt lat="47.9698" lon="7.09849">
        <ele>1120.2</ele>
        <time>2021-03-20T10:44:54.000Z</time>
      </trkpt>
      <trkpt lat="47.96968" lon="7.0985">
        <ele>1120</ele>
        <time>2021-03-20T10:45:03.000Z</time>
      </trkpt>
      <trkpt lat="47.96951" lon="7.09843">
        <ele>1119.8</ele>
        <time>2021-03-20T10:45:08.000Z</time>
      </trkpt>
      <trkpt lat="47.96939" lon="7.09839">
        <ele>1119.8</ele>
        <time>2021-03-20T10:45:40.000Z</time>
      </trkpt>
      <trkpt lat="47.96929" lon="7.09836">
        <ele>1119.9</ele>
        <time>2021-03-20T10:47:20.000Z</time>
      </trkpt>
      <trkpt lat="47.96935" lon="7.09825">
        <ele>1120.1</ele>
        <time>2021-03-20T10:54:33.000Z</time>
      </trkpt>
      <trkpt lat="47.96935" lon="7.09811">
        <ele>1120.2</ele>
        <time>2021-03-20T10:54:43.000Z</time>
      </trkpt>
      <trkpt lat="47.96934" lon="7.09796">
        <ele>1120.4</ele>
        <time>2021-03-20T10:54:53.000Z</time>
      </trkpt>
      <trkpt lat="47.96939" lon="7.09784">
        <ele>1120.4</ele>
        <time>2021-03-20T10:55:07.000Z</time>
      </trkpt>
      <trkpt lat="47.96932" lon="7.09775">
        <ele>1120.8</ele>
        <time>2021-03-20T10:55:40.000Z</time>
      </trkpt>
      <trkpt lat="47.96927" lon="7.09764">
        <ele>1121.2</ele>
        <time>2021-03-20T10:55:50.000Z</time>
      </trkpt>
      <trkpt lat="47.9692" lon="7.09754">
        <ele>1121.7</ele>
        <time>2021-03-20T10:56:15.000Z</time>
      </trkpt>
      <trkpt lat="47.96913" lon="7.09744">
        <ele>1122.2</ele>
        <time>2021-03-20T10:56:30.000Z</time>
      </trkpt>
      <trkpt lat="47.96914" lon="7.0973">
        <ele>1122.7</ele>
        <time>2021-03-20T10:56:41.000Z</time>
      </trkpt>
      <trkpt lat="47.96908" lon="7.09719">
        <ele>1123.3</ele>
        <time>2021-03-20T10:56:54.000Z</time>
      </trkpt>
      <trkpt lat="47.96902" lon="7.09708">
        <ele>1124</ele>
        <time>2021-03-20T10:57:07.000Z</time>
      </trkpt>
      <trkpt lat="47.96894" lon="7.097">
        <ele>1124.7</ele>
        <time>2021-03-20T10:57:18.000Z</time>
      </trkpt>
      <trkpt lat="47.9689" lon="7.09684">
        <ele>1126.1</ele>
        <time>2021-03-20T10:57:37.000Z</time>
      </trkpt>
      <trkpt lat="47.96885" lon="7.09671">
        <ele>1127.3</ele>
        <time>2021-03-20T10:57:51.000Z</time>
      </trkpt>
      <trkpt lat="47.96879" lon="7.09661">
        <ele>1128.7</ele>
        <time>2021-03-20T10:58:02.000Z</time>
      </trkpt>
      <trkpt lat="47.96873" lon="7.09649">
        <ele>1130.2</ele>
        <time>2021-03-20T10:58:14.000Z</time>
      </trkpt>
      <trkpt lat="47.96869" lon="7.09637">
        <ele>1131.7</ele>
        <time>2021-03-20T10:58:29.000Z</time>
      </trkpt>
      <trkpt lat="47.96861" lon="7.09628">
        <ele>1133.2</ele>
        <time>2021-03-20T10:58:41.000Z</time>
      </trkpt>
      <trkpt lat="47.96856" lon="7.09617">
        <ele>1134.8</ele>
        <time>2021-03-20T10:58:53.000Z</time>
      </trkpt>
      <trkpt lat="47.96851" lon="7.09606">
        <ele>1136.5</ele>
        <time>2021-03-20T10:59:13.000Z</time>
      </trkpt>
      <trkpt lat="47.96847" lon="7.09593">
        <ele>1138.2</ele>
        <time>2021-03-20T10:59:42.000Z</time>
      </trkpt>
      <trkpt lat="47.9684" lon="7.09583">
        <ele>1140.1</ele>
        <time>2021-03-20T10:59:52.000Z</time>
      </trkpt>
      <trkpt lat="47.96837" lon="7.09571">
        <ele>1142</ele>
        <time>2021-03-20T11:00:11.000Z</time>
      </trkpt>
      <trkpt lat="47.96832" lon="7.09558">
        <ele>1144</ele>
        <time>2021-03-20T11:00:23.000Z</time>
      </trkpt>
      <trkpt lat="47.96827" lon="7.09547">
        <ele>1145.3</ele>
        <time>2021-03-20T11:00:38.000Z</time>
      </trkpt>
      <trkpt lat="47.96822" lon="7.09535">
        <ele>1146.7</ele>
        <time>2021-03-20T11:00:53.000Z</time>
      </trkpt>
      <trkpt lat="47.96809" lon="7.09541">
        <ele>1145.6</ele>
        <time>2021-03-20T11:01:18.000Z</time>
      </trkpt>
      <trkpt lat="47.96812" lon="7.09527">
        <ele>1147.7</ele>
        <time>2021-03-20T11:01:23.000Z</time>
      </trkpt>
      <trkpt lat="47.96803" lon="7.09551">
        <ele>1144</ele>
        <time>2021-03-20T11:01:43.000Z</time>
      </trkpt>
      <trkpt lat="47.96792" lon="7.09618">
        <ele>1133.1</ele>
        <time>2021-03-20T11:01:48.000Z</time>
      </trkpt>
      <trkpt lat="47.96809" lon="7.09556">
        <ele>1143.5</ele>
        <time>2021-03-20T11:01:53.000Z</time>
      </trkpt>
      <trkpt lat="47.96811" lon="7.09542">
        <ele>1145.6</ele>
        <time>2021-03-20T11:02:11.000Z</time>
      </trkpt>
      <trkpt lat="47.96816" lon="7.09529">
        <ele>1147.5</ele>
        <time>2021-03-20T11:02:40.000Z</time>
      </trkpt>
      <trkpt lat="47.9681" lon="7.09542">
        <ele>1145.6</ele>
        <time>2021-03-20T11:03:08.000Z</time>
      </trkpt>
      <trkpt lat="47.96791" lon="7.09514">
        <ele>1149.8</ele>
        <time>2021-03-20T11:03:13.000Z</time>
      </trkpt>
      <trkpt lat="47.96797" lon="7.09526">
        <ele>1147.8</ele>
        <time>2021-03-20T11:03:18.000Z</time>
      </trkpt>
      <trkpt lat="47.96808" lon="7.09528">
        <ele>1147.5</ele>
        <time>2021-03-20T11:03:29.000Z</time>
      </trkpt>
      <trkpt lat="47.96801" lon="7.09511">
        <ele>1150.1</ele>
        <time>2021-03-20T11:03:56.000Z</time>
      </trkpt>
      <trkpt lat="47.96794" lon="7.09497">
        <ele>1152.1</ele>
        <time>2021-03-20T11:04:07.000Z</time>
      </trkpt>
      <trkpt lat="47.96786" lon="7.09489">
        <ele>1152.7</ele>
        <time>2021-03-20T11:04:19.000Z</time>
      </trkpt>
      <trkpt lat="47.96779" lon="7.09479">
        <ele>1153.6</ele>
        <time>2021-03-20T11:04:38.000Z</time>
      </trkpt>
      <trkpt lat="47.96772" lon="7.09468">
        <ele>1154.5</ele>
        <time>2021-03-20T11:04:48.000Z</time>
      </trkpt>
      <trkpt lat="47.96764" lon="7.09456">
        <ele>1155.9</ele>
        <time>2021-03-20T11:05:01.000Z</time>
      </trkpt>
      <trkpt lat="47.96756" lon="7.09443">
        <ele>1157.3</ele>
        <time>2021-03-20T11:05:39.000Z</time>
      </trkpt>
      <trkpt lat="47.96748" lon="7.09431">
        <ele>1158.8</ele>
        <time>2021-03-20T11:05:54.000Z</time>
      </trkpt>
      <trkpt lat="47.9674" lon="7.09422">
        <ele>1159.6</ele>
        <time>2021-03-20T11:06:05.000Z</time>
      </trkpt>
      <trkpt lat="47.96734" lon="7.09411">
        <ele>1160.6</ele>
        <time>2021-03-20T11:06:20.000Z</time>
      </trkpt>
      <trkpt lat="47.96726" lon="7.09399">
        <ele>1161.6</ele>
        <time>2021-03-20T11:06:37.000Z</time>
      </trkpt>
      <trkpt lat="47.96717" lon="7.09389">
        <ele>1162.7</ele>
        <time>2021-03-20T11:06:58.000Z</time>
      </trkpt>
      <trkpt lat="47.96711" lon="7.09375">
        <ele>1164.1</ele>
        <time>2021-03-20T11:07:26.000Z</time>
      </trkpt>
      <trkpt lat="47.96701" lon="7.09366">
        <ele>1165.5</ele>
        <time>2021-03-20T11:07:48.000Z</time>
      </trkpt>
      <trkpt lat="47.96696" lon="7.09353">
        <ele>1167.2</ele>
        <time>2021-03-20T11:08:23.000Z</time>
      </trkpt>
      <trkpt lat="47.9669" lon="7.09341">
        <ele>1169</ele>
        <time>2021-03-20T11:08:51.000Z</time>
      </trkpt>
      <trkpt lat="47.96685" lon="7.09329">
        <ele>1170.4</ele>
        <time>2021-03-20T11:09:15.000Z</time>
      </trkpt>
      <trkpt lat="47.9668" lon="7.09315">
        <ele>1171.5</ele>
        <time>2021-03-20T11:09:37.000Z</time>
      </trkpt>
      <trkpt lat="47.96676" lon="7.09301">
        <ele>1172.7</ele>
        <time>2021-03-20T11:09:58.000Z</time>
      </trkpt>
      <trkpt lat="47.96668" lon="7.09287">
        <ele>1174.5</ele>
        <time>2021-03-20T11:10:18.000Z</time>
      </trkpt>
      <trkpt lat="47.96655" lon="7.09244">
        <ele>1178.2</ele>
        <time>2021-03-20T11:10:23.000Z</time>
      </trkpt>
      <trkpt lat="47.96653" lon="7.09265">
        <ele>1176.4</ele>
        <time>2021-03-20T11:10:36.000Z</time>
      </trkpt>
      <trkpt lat="47.96643" lon="7.09266">
        <ele>1176.5</ele>
        <time>2021-03-20T11:10:43.000Z</time>
      </trkpt>
      <trkpt lat="47.96639" lon="7.09253">
        <ele>1178.1</ele>
        <time>2021-03-20T11:11:17.000Z</time>
      </trkpt>
      <trkpt lat="47.96633" lon="7.0924">
        <ele>1179.9</ele>
        <time>2021-03-20T11:11:34.000Z</time>
      </trkpt>
      <trkpt lat="47.96628" lon="7.09225">
        <ele>1182.1</ele>
        <time>2021-03-20T11:12:02.000Z</time>
      </trkpt>
      <trkpt lat="47.96623" lon="7.09211">
        <ele>1184.3</ele>
        <time>2021-03-20T11:13:50.000Z</time>
      </trkpt>
      <trkpt lat="47.96617" lon="7.09201">
        <ele>1186.3</ele>
        <time>2021-03-20T11:14:39.000Z</time>
      </trkpt>
      <trkpt lat="47.96609" lon="7.09189">
        <ele>1188.7</ele>
        <time>2021-03-20T11:15:03.000Z</time>
      </trkpt>
      <trkpt lat="47.96601" lon="7.09177">
        <ele>1191.3</ele>
        <time>2021-03-20T11:15:19.000Z</time>
      </trkpt>
      <trkpt lat="47.96597" lon="7.09162">
        <ele>1194</ele>
        <time>2021-03-20T11:15:38.000Z</time>
      </trkpt>
      <trkpt lat="47.96592" lon="7.09148">
        <ele>1196.5</ele>
        <time>2021-03-20T11:15:56.000Z</time>
      </trkpt>
      <trkpt lat="47.96585" lon="7.09135">
        <ele>1199.1</ele>
        <time>2021-03-20T11:16:12.000Z</time>
      </trkpt>
      <trkpt lat="47.96577" lon="7.09123">
        <ele>1200</ele>
        <time>2021-03-20T11:16:39.000Z</time>
      </trkpt>
      <trkpt lat="47.96577" lon="7.09107">
        <ele>1202.2</ele>
        <time>2021-03-20T11:16:58.000Z</time>
      </trkpt>
      <trkpt lat="47.96575" lon="7.09091">
        <ele>1204.1</ele>
        <time>2021-03-20T11:17:17.000Z</time>
      </trkpt>
      <trkpt lat="47.96572" lon="7.0907">
        <ele>1206.4</ele>
        <time>2021-03-20T11:18:28.000Z</time>
      </trkpt>
      <trkpt lat="47.96573" lon="7.09053">
        <ele>1208.3</ele>
        <time>2021-03-20T11:18:47.000Z</time>
      </trkpt>
      <trkpt lat="47.96568" lon="7.09038">
        <ele>1209.9</ele>
        <time>2021-03-20T11:19:04.000Z</time>
      </trkpt>
      <trkpt lat="47.96564" lon="7.09023">
        <ele>1211.6</ele>
        <time>2021-03-20T11:19:25.000Z</time>
      </trkpt>
      <trkpt lat="47.96555" lon="7.09015">
        <ele>1212.7</ele>
        <time>2021-03-20T11:21:31.000Z</time>
      </trkpt>
      <trkpt lat="47.96546" lon="7.09005">
        <ele>1214.1</ele>
        <time>2021-03-20T11:21:44.000Z</time>
      </trkpt>
      <trkpt lat="47.96537" lon="7.08994">
        <ele>1215.7</ele>
        <time>2021-03-20T11:22:01.000Z</time>
      </trkpt>
      <trkpt lat="47.96533" lon="7.08978">
        <ele>1217.3</ele>
        <time>2021-03-20T11:22:21.000Z</time>
      </trkpt>
      <trkpt lat="47.96537" lon="7.08963">
        <ele>1218.6</ele>
        <time>2021-03-20T11:22:39.000Z</time>
      </trkpt>
      <trkpt lat="47.96538" lon="7.08945">
        <ele>1220.3</ele>
        <time>2021-03-20T11:22:57.000Z</time>
      </trkpt>
      <trkpt lat="47.96539" lon="7.08927">
        <ele>1221.8</ele>
        <time>2021-03-20T11:23:15.000Z</time>
      </trkpt>
      <trkpt lat="47.96533" lon="7.08914">
        <ele>1223.7</ele>
        <time>2021-03-20T11:23:33.000Z</time>
      </trkpt>
      <trkpt lat="47.96521" lon="7.08906">
        <ele>1225.9</ele>
        <time>2021-03-20T11:24:03.000Z</time>
      </trkpt>
      <trkpt lat="47.9651" lon="7.08901">
        <ele>1227.8</ele>
        <time>2021-03-20T11:24:16.000Z</time>
      </trkpt>
      <trkpt lat="47.96499" lon="7.08899">
        <ele>1229.1</ele>
        <time>2021-03-20T11:24:30.000Z</time>
      </trkpt>
      <trkpt lat="47.96486" lon="7.08895">
        <ele>1229.2</ele>
        <time>2021-03-20T11:24:44.000Z</time>
      </trkpt>
      <trkpt lat="47.96475" lon="7.08888">
        <ele>1229.8</ele>
        <time>2021-03-20T11:24:58.000Z</time>
      </trkpt>
      <trkpt lat="47.96477" lon="7.08873">
        <ele>1232.7</ele>
        <time>2021-03-20T11:25:16.000Z</time>
      </trkpt>
      <trkpt lat="47.96485" lon="7.0886">
        <ele>1235.5</ele>
        <time>2021-03-20T11:28:18.000Z</time>
      </trkpt>
      <trkpt lat="47.96491" lon="7.08847">
        <ele>1238.3</ele>
        <time>2021-03-20T11:28:39.000Z</time>
      </trkpt>
      <trkpt lat="47.96482" lon="7.08838">
        <ele>1239.5</ele>
        <time>2021-03-20T11:29:04.000Z</time>
      </trkpt>
      <trkpt lat="47.96482" lon="7.08823">
        <ele>1242.1</ele>
        <time>2021-03-20T11:29:26.000Z</time>
      </trkpt>
      <trkpt lat="47.96478" lon="7.08809">
        <ele>1244.2</ele>
        <time>2021-03-20T11:29:50.000Z</time>
      </trkpt>
      <trkpt lat="47.96474" lon="7.08794">
        <ele>1246.5</ele>
        <time>2021-03-20T11:30:15.000Z</time>
      </trkpt>
      <trkpt lat="47.96475" lon="7.08779">
        <ele>1249.1</ele>
        <time>2021-03-20T11:30:33.000Z</time>
      </trkpt>
      <trkpt lat="47.96481" lon="7.08766">
        <ele>1251.5</ele>
        <time>2021-03-20T11:31:27.000Z</time>
      </trkpt>
      <trkpt lat="47.96487" lon="7.08752">
        <ele>1254</ele>
        <time>2021-03-20T11:31:42.000Z</time>
      </trkpt>
      <trkpt lat="47.96494" lon="7.08743">
        <ele>1255.3</ele>
        <time>2021-03-20T11:32:20.000Z</time>
      </trkpt>
      <trkpt lat="47.96489" lon="7.08731">
        <ele>1256</ele>
        <time>2021-03-20T11:32:36.000Z</time>
      </trkpt>
      <trkpt lat="47.96496" lon="7.08709">
        <ele>1257.9</ele>
        <time>2021-03-20T11:33:04.000Z</time>
      </trkpt>
      <trkpt lat="47.96529" lon="7.08718">
        <ele>1251.7</ele>
        <time>2021-03-20T11:33:09.000Z</time>
      </trkpt>
      <trkpt lat="47.96488" lon="7.08738">
        <ele>1255.4</ele>
        <time>2021-03-20T11:33:14.000Z</time>
      </trkpt>
      <trkpt lat="47.96491" lon="7.08717">
        <ele>1257.1</ele>
        <time>2021-03-20T11:34:31.000Z</time>
      </trkpt>
      <trkpt lat="47.96494" lon="7.08702">
        <ele>1258.4</ele>
        <time>2021-03-20T11:34:57.000Z</time>
      </trkpt>
      <trkpt lat="47.96496" lon="7.08686">
        <ele>1259.6</ele>
        <time>2021-03-20T11:35:14.000Z</time>
      </trkpt>
      <trkpt lat="47.96496" lon="7.08668">
        <ele>1261</ele>
        <time>2021-03-20T11:35:30.000Z</time>
      </trkpt>
      <trkpt lat="47.96496" lon="7.0865">
        <ele>1261.8</ele>
        <time>2021-03-20T11:35:56.000Z</time>
      </trkpt>
      <trkpt lat="47.96488" lon="7.08637">
        <ele>1262.5</ele>
        <time>2021-03-20T11:36:11.000Z</time>
      </trkpt>
      <trkpt lat="47.96479" lon="7.08624">
        <ele>1263.2</ele>
        <time>2021-03-20T11:36:27.000Z</time>
      </trkpt>
      <trkpt lat="47.9647" lon="7.08621">
        <ele>1263.3</ele>
        <time>2021-03-20T11:36:43.000Z</time>
      </trkpt>
      <trkpt lat="47.96463" lon="7.08633">
        <ele>1262.9</ele>
        <time>2021-03-20T11:41:22.000Z</time>
      </trkpt>
      <trkpt lat="47.96471" lon="7.08616">
        <ele>1263.6</ele>
        <time>2021-03-20T11:41:27.000Z</time>
      </trkpt>
      <trkpt lat="47.96467" lon="7.08628">
        <ele>1263.1</ele>
        <time>2021-03-20T11:41:59.000Z</time>
      </trkpt>
      <trkpt lat="47.96466" lon="7.08606">
        <ele>1264</ele>
        <time>2021-03-20T12:00:49.000Z</time>
      </trkpt>
      <trkpt lat="47.96468" lon="7.08591">
        <ele>1264.7</ele>
        <time>2021-03-20T12:00:56.000Z</time>
      </trkpt>
      <trkpt lat="47.96467" lon="7.08577">
        <ele>1265.1</ele>
        <time>2021-03-20T12:01:04.000Z</time>
      </trkpt>
      <trkpt lat="47.96471" lon="7.08565">
        <ele>1265.4</ele>
        <time>2021-03-20T12:01:15.000Z</time>
      </trkpt>
      <trkpt lat="47.96479" lon="7.08556">
        <ele>1265.6</ele>
        <time>2021-03-20T12:01:24.000Z</time>
      </trkpt>
      <trkpt lat="47.96486" lon="7.08547">
        <ele>1265.8</ele>
        <time>2021-03-20T12:01:33.000Z</time>
      </trkpt>
      <trkpt lat="47.96492" lon="7.08538">
        <ele>1266</ele>
        <time>2021-03-20T12:01:41.000Z</time>
      </trkpt>
      <trkpt lat="47.965" lon="7.0853">
        <ele>1266.2</ele>
        <time>2021-03-20T12:01:50.000Z</time>
      </trkpt>
      <trkpt lat="47.96509" lon="7.08525">
        <ele>1265.1</ele>
        <time>2021-03-20T12:02:00.000Z</time>
      </trkpt>
      <trkpt lat="47.96519" lon="7.08524">
        <ele>1263.7</ele>
        <time>2021-03-20T12:02:06.000Z</time>
      </trkpt>
      <trkpt lat="47.96528" lon="7.0852">
        <ele>1262.7</ele>
        <time>2021-03-20T12:02:15.000Z</time>
      </trkpt>
      <trkpt lat="47.96531" lon="7.08507">
        <ele>1262.9</ele>
        <time>2021-03-20T12:02:26.000Z</time>
      </trkpt>
      <trkpt lat="47.96534" lon="7.08493">
        <ele>1263.1</ele>
        <time>2021-03-20T12:02:34.000Z</time>
      </trkpt>
      <trkpt lat="47.96537" lon="7.08479">
        <ele>1262.9</ele>
        <time>2021-03-20T12:02:44.000Z</time>
      </trkpt>
      <trkpt lat="47.96539" lon="7.08465">
        <ele>1262.9</ele>
        <time>2021-03-20T12:02:53.000Z</time>
      </trkpt>
      <trkpt lat="47.96536" lon="7.08451">
        <ele>1263.4</ele>
        <time>2021-03-20T12:03:03.000Z</time>
      </trkpt>
      <trkpt lat="47.96534" lon="7.08437">
        <ele>1263.7</ele>
        <time>2021-03-20T12:03:14.000Z</time>
      </trkpt>
      <trkpt lat="47.96528" lon="7.08426">
        <ele>1264.3</ele>
        <time>2021-03-20T12:03:24.000Z</time>
      </trkpt>
      <trkpt lat="47.96517" lon="7.08419">
        <ele>1265</ele>
        <time>2021-03-20T12:03:36.000Z</time>
      </trkpt>
      <trkpt lat="47.96508" lon="7.08423">
        <ele>1265.6</ele>
        <time>2021-03-20T12:03:46.000Z</time>
      </trkpt>
      <trkpt lat="47.96499" lon="7.08434">
        <ele>1266.2</ele>
        <time>2021-03-20T12:04:26.000Z</time>
      </trkpt>
      <trkpt lat="47.96494" lon="7.08446">
        <ele>1266.1</ele>
        <time>2021-03-20T12:04:34.000Z</time>
      </trkpt>
      <trkpt lat="47.96491" lon="7.0846">
        <ele>1266.3</ele>
        <time>2021-03-20T12:04:43.000Z</time>
      </trkpt>
      <trkpt lat="47.96491" lon="7.08475">
        <ele>1266.5</ele>
        <time>2021-03-20T12:04:50.000Z</time>
      </trkpt>
      <trkpt lat="47.96484" lon="7.08486">
        <ele>1266.5</ele>
        <time>2021-03-20T12:04:58.000Z</time>
      </trkpt>
      <trkpt lat="47.96477" lon="7.08496">
        <ele>1266.6</ele>
        <time>2021-03-20T12:05:07.000Z</time>
      </trkpt>
      <trkpt lat="47.96468" lon="7.08499">
        <ele>1266.6</ele>
        <time>2021-03-20T12:05:17.000Z</time>
      </trkpt>
      <trkpt lat="47.96459" lon="7.08496">
        <ele>1266.4</ele>
        <time>2021-03-20T12:05:27.000Z</time>
      </trkpt>
      <trkpt lat="47.96459" lon="7.08511">
        <ele>1266.3</ele>
        <time>2021-03-20T12:05:36.000Z</time>
      </trkpt>
      <trkpt lat="47.9646" lon="7.08524">
        <ele>1266.1</ele>
        <time>2021-03-20T12:05:43.000Z</time>
      </trkpt>
      <trkpt lat="47.96462" lon="7.08539">
        <ele>1265.8</ele>
        <time>2021-03-20T12:05:52.000Z</time>
      </trkpt>
      <trkpt lat="47.96465" lon="7.08553">
        <ele>1265.6</ele>
        <time>2021-03-20T12:06:00.000Z</time>
      </trkpt>
      <trkpt lat="47.96466" lon="7.08567">
        <ele>1265.3</ele>
        <time>2021-03-20T12:06:08.000Z</time>
      </trkpt>
      <trkpt lat="47.96467" lon="7.08581">
        <ele>1265</ele>
        <time>2021-03-20T12:06:16.000Z</time>
      </trkpt>
      <trkpt lat="47.96467" lon="7.08596">
        <ele>1264.5</ele>
        <time>2021-03-20T12:06:24.000Z</time>
      </trkpt>
      <trkpt lat="47.96466" lon="7.08611">
        <ele>1263.8</ele>
        <time>2021-03-20T12:06:33.000Z</time>
      </trkpt>
      <trkpt lat="47.96463" lon="7.08625">
        <ele>1263.2</ele>
        <time>2021-03-20T12:09:07.000Z</time>
      </trkpt>
      <trkpt lat="47.96469" lon="7.08636">
        <ele>1262.7</ele>
        <time>2021-03-20T12:14:13.000Z</time>
      </trkpt>
      <trkpt lat="47.96466" lon="7.0862">
        <ele>1263.4</ele>
        <time>2021-03-20T12:20:07.000Z</time>
      </trkpt>
      <trkpt lat="47.96468" lon="7.08607">
        <ele>1264</ele>
        <time>2021-03-20T12:21:04.000Z</time>
      </trkpt>
      <trkpt lat="47.96466" lon="7.08593">
        <ele>1264.6</ele>
        <time>2021-03-20T12:21:11.000Z</time>
      </trkpt>
      <trkpt lat="47.96465" lon="7.08579">
        <ele>1265.1</ele>
        <time>2021-03-20T12:21:34.000Z</time>
      </trkpt>
      <trkpt lat="47.96467" lon="7.08566">
        <ele>1265.3</ele>
        <time>2021-03-20T12:21:42.000Z</time>
      </trkpt>
      <trkpt lat="47.96471" lon="7.08552">
        <ele>1265.6</ele>
        <time>2021-03-20T12:21:51.000Z</time>
      </trkpt>
      <trkpt lat="47.96473" lon="7.08539">
        <ele>1265.9</ele>
        <time>2021-03-20T12:21:59.000Z</time>
      </trkpt>
      <trkpt lat="47.96478" lon="7.08527">
        <ele>1266.2</ele>
        <time>2021-03-20T12:22:08.000Z</time>
      </trkpt>
      <trkpt lat="47.96479" lon="7.08513">
        <ele>1266.5</ele>
        <time>2021-03-20T12:22:17.000Z</time>
      </trkpt>
      <trkpt lat="47.96482" lon="7.08499">
        <ele>1266.8</ele>
        <time>2021-03-20T12:22:26.000Z</time>
      </trkpt>
      <trkpt lat="47.96486" lon="7.08486">
        <ele>1266.6</ele>
        <time>2021-03-20T12:22:36.000Z</time>
      </trkpt>
      <trkpt lat="47.96491" lon="7.08473">
        <ele>1266.5</ele>
        <time>2021-03-20T12:22:44.000Z</time>
      </trkpt>
      <trkpt lat="47.96498" lon="7.08464">
        <ele>1266.5</ele>
        <time>2021-03-20T12:22:52.000Z</time>
      </trkpt>
      <trkpt lat="47.96503" lon="7.08451">
        <ele>1266.2</ele>
        <time>2021-03-20T12:23:02.000Z</time>
      </trkpt>
      <trkpt lat="47.96508" lon="7.08439">
        <ele>1265.7</ele>
        <time>2021-03-20T12:23:11.000Z</time>
      </trkpt>
      <trkpt lat="47.96514" lon="7.08428">
        <ele>1265.2</ele>
        <time>2021-03-20T12:23:19.000Z</time>
      </trkpt>
      <trkpt lat="47.96524" lon="7.0843">
        <ele>1264.5</ele>
        <time>2021-03-20T12:23:29.000Z</time>
      </trkpt>
      <trkpt lat="47.96533" lon="7.08433">
        <ele>1263.8</ele>
        <time>2021-03-20T12:23:38.000Z</time>
      </trkpt>
      <trkpt lat="47.96543" lon="7.08438">
        <ele>1263</ele>
        <time>2021-03-20T12:35:11.000Z</time>
      </trkpt>
      <trkpt lat="47.96555" lon="7.08436">
        <ele>1262.2</ele>
        <time>2021-03-20T12:35:16.000Z</time>
      </trkpt>
      <trkpt lat="47.96563" lon="7.08431">
        <ele>1261.7</ele>
        <time>2021-03-20T12:35:33.000Z</time>
      </trkpt>
      <trkpt lat="47.96573" lon="7.08427">
        <ele>1261.2</ele>
        <time>2021-03-20T12:35:39.000Z</time>
      </trkpt>
      <trkpt lat="47.96582" lon="7.08413">
        <ele>1260.9</ele>
        <time>2021-03-20T12:35:44.000Z</time>
      </trkpt>
      <trkpt lat="47.9658" lon="7.08428">
        <ele>1260.7</ele>
        <time>2021-03-20T12:36:49.000Z</time>
      </trkpt>
      <trkpt lat="47.96591" lon="7.0845">
        <ele>1257.2</ele>
        <time>2021-03-20T12:36:54.000Z</time>
      </trkpt>
      <trkpt lat="47.96604" lon="7.08468">
        <ele>1252.9</ele>
        <time>2021-03-20T12:36:59.000Z</time>
      </trkpt>
      <trkpt lat="47.9662" lon="7.08472">
        <ele>1248.1</ele>
        <time>2021-03-20T12:37:04.000Z</time>
      </trkpt>
      <trkpt lat="47.96635" lon="7.08476">
        <ele>1243.6</ele>
        <time>2021-03-20T12:37:09.000Z</time>
      </trkpt>
      <trkpt lat="47.96644" lon="7.08476">
        <ele>1241.1</ele>
        <time>2021-03-20T12:37:29.000Z</time>
      </trkpt>
      <trkpt lat="47.96656" lon="7.08481">
        <ele>1237.4</ele>
        <time>2021-03-20T12:37:34.000Z</time>
      </trkpt>
      <trkpt lat="47.96665" lon="7.08471">
        <ele>1235.6</ele>
        <time>2021-03-20T12:37:58.000Z</time>
      </trkpt>
      <trkpt lat="47.96665" lon="7.0849">
        <ele>1234.4</ele>
        <time>2021-03-20T12:38:26.000Z</time>
      </trkpt>
      <trkpt lat="47.9667" lon="7.085">
        <ele>1232</ele>
        <time>2021-03-20T12:38:31.000Z</time>
      </trkpt>
      <trkpt lat="47.96692" lon="7.08491">
        <ele>1226.6</ele>
        <time>2021-03-20T12:38:36.000Z</time>
      </trkpt>
      <trkpt lat="47.96701" lon="7.085">
        <ele>1223.3</ele>
        <time>2021-03-20T12:38:41.000Z</time>
      </trkpt>
      <trkpt lat="47.96719" lon="7.08511">
        <ele>1216.9</ele>
        <time>2021-03-20T12:38:46.000Z</time>
      </trkpt>
      <trkpt lat="47.96728" lon="7.08512">
        <ele>1213.9</ele>
        <time>2021-03-20T12:38:51.000Z</time>
      </trkpt>
      <trkpt lat="47.96719" lon="7.08507">
        <ele>1217.2</ele>
        <time>2021-03-20T12:39:07.000Z</time>
      </trkpt>
      <trkpt lat="47.96729" lon="7.08511">
        <ele>1214</ele>
        <time>2021-03-20T12:39:33.000Z</time>
      </trkpt>
      <trkpt lat="47.96739" lon="7.08517">
        <ele>1210.1</ele>
        <time>2021-03-20T12:39:40.000Z</time>
      </trkpt>
      <trkpt lat="47.96752" lon="7.08515">
        <ele>1206</ele>
        <time>2021-03-20T12:39:45.000Z</time>
      </trkpt>
      <trkpt lat="47.96761" lon="7.08517">
        <ele>1201.5</ele>
        <time>2021-03-20T12:39:52.000Z</time>
      </trkpt>
      <trkpt lat="47.96768" lon="7.08507">
        <ele>1199.9</ele>
        <time>2021-03-20T12:39:57.000Z</time>
      </trkpt>
      <trkpt lat="47.96778" lon="7.08511">
        <ele>1194.9</ele>
        <time>2021-03-20T12:40:29.000Z</time>
      </trkpt>
      <trkpt lat="47.96789" lon="7.08518">
        <ele>1188.7</ele>
        <time>2021-03-20T12:40:41.000Z</time>
      </trkpt>
      <trkpt lat="47.96806" lon="7.08519">
        <ele>1180.7</ele>
        <time>2021-03-20T12:41:03.000Z</time>
      </trkpt>
      <trkpt lat="47.96814" lon="7.0853">
        <ele>1174.7</ele>
        <time>2021-03-20T12:41:44.000Z</time>
      </trkpt>
      <trkpt lat="47.96816" lon="7.08544">
        <ele>1170.7</ele>
        <time>2021-03-20T12:42:50.000Z</time>
      </trkpt>
      <trkpt lat="47.96807" lon="7.08564">
        <ele>1171</ele>
        <time>2021-03-20T12:42:55.000Z</time>
      </trkpt>
      <trkpt lat="47.96816" lon="7.08571">
        <ele>1165</ele>
        <time>2021-03-20T12:43:00.000Z</time>
      </trkpt>
      <trkpt lat="47.9683" lon="7.08572">
        <ele>1157.4</ele>
        <time>2021-03-20T12:43:05.000Z</time>
      </trkpt>
      <trkpt lat="47.9684" lon="7.08573">
        <ele>1151.5</ele>
        <time>2021-03-20T12:44:53.000Z</time>
      </trkpt>
      <trkpt lat="47.9685" lon="7.08559">
        <ele>1149.7</ele>
        <time>2021-03-20T12:44:58.000Z</time>
      </trkpt>
      <trkpt lat="47.96858" lon="7.08553">
        <ele>1146.2</ele>
        <time>2021-03-20T12:45:05.000Z</time>
      </trkpt>
      <trkpt lat="47.96873" lon="7.08544">
        <ele>1140.3</ele>
        <time>2021-03-20T12:45:10.000Z</time>
      </trkpt>
      <trkpt lat="47.96894" lon="7.08542">
        <ele>1128.8</ele>
        <time>2021-03-20T12:45:15.000Z</time>
      </trkpt>
      <trkpt lat="47.96915" lon="7.08544">
        <ele>1117.2</ele>
        <time>2021-03-20T12:45:20.000Z</time>
      </trkpt>
      <trkpt lat="47.96939" lon="7.08524">
        <ele>1111.8</ele>
        <time>2021-03-20T12:45:25.000Z</time>
      </trkpt>
      <trkpt lat="47.96956" lon="7.08511">
        <ele>1107.7</ele>
        <time>2021-03-20T12:45:30.000Z</time>
      </trkpt>
      <trkpt lat="47.96978" lon="7.085">
        <ele>1100.8</ele>
        <time>2021-03-20T12:45:35.000Z</time>
      </trkpt>
      <trkpt lat="47.96995" lon="7.08491">
        <ele>1097.1</ele>
        <time>2021-03-20T12:45:40.000Z</time>
      </trkpt>
      <trkpt lat="47.97015" lon="7.08485">
        <ele>1094.2</ele>
        <time>2021-03-20T12:45:45.000Z</time>
      </trkpt>
      <trkpt lat="47.97025" lon="7.0848">
        <ele>1093.9</ele>
        <time>2021-03-20T12:45:50.000Z</time>
      </trkpt>
      <trkpt lat="47.97035" lon="7.0848">
        <ele>1091.9</ele>
        <time>2021-03-20T12:46:32.000Z</time>
      </trkpt>
      <trkpt lat="47.97034" lon="7.08502">
        <ele>1084.6</ele>
        <time>2021-03-20T12:47:43.000Z</time>
      </trkpt>
      <trkpt lat="47.97044" lon="7.08498">
        <ele>1083.9</ele>
        <time>2021-03-20T12:48:12.000Z</time>
      </trkpt>
      <trkpt lat="47.97054" lon="7.08491">
        <ele>1084.3</ele>
        <time>2021-03-20T12:48:42.000Z</time>
      </trkpt>
      <trkpt lat="47.97063" lon="7.08485">
        <ele>1084.5</ele>
        <time>2021-03-20T12:49:25.000Z</time>
      </trkpt>
      <trkpt lat="47.97076" lon="7.08478">
        <ele>1084.4</ele>
        <time>2021-03-20T12:49:37.000Z</time>
      </trkpt>
      <trkpt lat="47.97085" lon="7.08476">
        <ele>1083.4</ele>
        <time>2021-03-20T12:49:43.000Z</time>
      </trkpt>
      <trkpt lat="47.97094" lon="7.08473">
        <ele>1083.7</ele>
        <time>2021-03-20T12:49:49.000Z</time>
      </trkpt>
      <trkpt lat="47.97105" lon="7.08468">
        <ele>1084.5</ele>
        <time>2021-03-20T12:50:15.000Z</time>
      </trkpt>
      <trkpt lat="47.97115" lon="7.0846">
        <ele>1086</ele>
        <time>2021-03-20T12:50:30.000Z</time>
      </trkpt>
      <trkpt lat="47.97122" lon="7.08472">
        <ele>1081.5</ele>
        <time>2021-03-20T12:50:53.000Z</time>
      </trkpt>
      <trkpt lat="47.97119" lon="7.08458">
        <ele>1086.4</ele>
        <time>2021-03-20T12:50:59.000Z</time>
      </trkpt>
      <trkpt lat="47.97119" lon="7.08472">
        <ele>1081.8</ele>
        <time>2021-03-20T12:51:08.000Z</time>
      </trkpt>
      <trkpt lat="47.97122" lon="7.08485">
        <ele>1077.1</ele>
        <time>2021-03-20T12:53:27.000Z</time>
      </trkpt>
      <trkpt lat="47.97132" lon="7.0848">
        <ele>1077.7</ele>
        <time>2021-03-20T12:53:43.000Z</time>
      </trkpt>
      <trkpt lat="47.97152" lon="7.08504">
        <ele>1068.2</ele>
        <time>2021-03-20T12:53:48.000Z</time>
      </trkpt>
      <trkpt lat="47.97167" lon="7.0853">
        <ele>1060</ele>
        <time>2021-03-20T12:53:53.000Z</time>
      </trkpt>
      <trkpt lat="47.97176" lon="7.08545">
        <ele>1055.9</ele>
        <time>2021-03-20T12:53:58.000Z</time>
      </trkpt>
      <trkpt lat="47.97183" lon="7.08555">
        <ele>1053.2</ele>
        <time>2021-03-20T12:54:39.000Z</time>
      </trkpt>
      <trkpt lat="47.97197" lon="7.08549">
        <ele>1054.7</ele>
        <time>2021-03-20T12:54:44.000Z</time>
      </trkpt>
      <trkpt lat="47.97203" lon="7.08538">
        <ele>1057.7</ele>
        <time>2021-03-20T12:54:57.000Z</time>
      </trkpt>
      <trkpt lat="47.97205" lon="7.08552">
        <ele>1053.7</ele>
        <time>2021-03-20T12:55:13.000Z</time>
      </trkpt>
      <trkpt lat="47.97199" lon="7.0854">
        <ele>1057.2</ele>
        <time>2021-03-20T12:55:24.000Z</time>
      </trkpt>
      <trkpt lat="47.97192" lon="7.08553">
        <ele>1053.6</ele>
        <time>2021-03-20T12:55:29.000Z</time>
      </trkpt>
      <trkpt lat="47.97184" lon="7.08561">
        <ele>1051.4</ele>
        <time>2021-03-20T12:55:36.000Z</time>
      </trkpt>
      <trkpt lat="47.97176" lon="7.0857">
        <ele>1049.2</ele>
        <time>2021-03-20T12:55:42.000Z</time>
      </trkpt>
      <trkpt lat="47.97168" lon="7.08581">
        <ele>1046.6</ele>
        <time>2021-03-20T12:55:47.000Z</time>
      </trkpt>
      <trkpt lat="47.9716" lon="7.08588">
        <ele>1045.6</ele>
        <time>2021-03-20T12:55:52.000Z</time>
      </trkpt>
      <trkpt lat="47.97152" lon="7.08596">
        <ele>1044.5</ele>
        <time>2021-03-20T12:56:01.000Z</time>
      </trkpt>
      <trkpt lat="47.97157" lon="7.08613">
        <ele>1040.4</ele>
        <time>2021-03-20T12:56:21.000Z</time>
      </trkpt>
      <trkpt lat="47.97172" lon="7.08618">
        <ele>1037.7</ele>
        <time>2021-03-20T12:56:26.000Z</time>
      </trkpt>
      <trkpt lat="47.97191" lon="7.08629">
        <ele>1033.3</ele>
        <time>2021-03-20T12:56:31.000Z</time>
      </trkpt>
      <trkpt lat="47.97195" lon="7.08645">
        <ele>1029.1</ele>
        <time>2021-03-20T12:56:40.000Z</time>
      </trkpt>
      <trkpt lat="47.97201" lon="7.08656">
        <ele>1025.5</ele>
        <time>2021-03-20T12:56:45.000Z</time>
      </trkpt>
      <trkpt lat="47.97212" lon="7.08667">
        <ele>1020.9</ele>
        <time>2021-03-20T12:56:50.000Z</time>
      </trkpt>
      <trkpt lat="47.9722" lon="7.08674">
        <ele>1018.6</ele>
        <time>2021-03-20T12:56:56.000Z</time>
      </trkpt>
      <trkpt lat="47.97231" lon="7.08676">
        <ele>1016.8</ele>
        <time>2021-03-20T12:57:13.000Z</time>
      </trkpt>
      <trkpt lat="47.9724" lon="7.08674">
        <ele>1015.9</ele>
        <time>2021-03-20T12:57:30.000Z</time>
      </trkpt>
      <trkpt lat="47.97249" lon="7.08679">
        <ele>1013.9</ele>
        <time>2021-03-20T12:57:58.000Z</time>
      </trkpt>
      <trkpt lat="47.97258" lon="7.08679">
        <ele>1013.5</ele>
        <time>2021-03-20T12:59:11.000Z</time>
      </trkpt>
      <trkpt lat="47.97268" lon="7.0867">
        <ele>1015.1</ele>
        <time>2021-03-20T12:59:35.000Z</time>
      </trkpt>
      <trkpt lat="47.97268" lon="7.08656">
        <ele>1019.2</ele>
        <time>2021-03-20T13:00:11.000Z</time>
      </trkpt>
      <trkpt lat="47.97273" lon="7.08641">
        <ele>1023.9</ele>
        <time>2021-03-20T13:00:54.000Z</time>
      </trkpt>
      <trkpt lat="47.97279" lon="7.08626">
        <ele>1028.2</ele>
        <time>2021-03-20T13:01:12.000Z</time>
      </trkpt>
      <trkpt lat="47.9727" lon="7.08647">
        <ele>1022.1</ele>
        <time>2021-03-20T13:02:32.000Z</time>
      </trkpt>
      <trkpt lat="47.97276" lon="7.08636">
        <ele>1025.2</ele>
        <time>2021-03-20T13:03:23.000Z</time>
      </trkpt>
      <trkpt lat="47.9728" lon="7.08623">
        <ele>1028.9</ele>
        <time>2021-03-20T13:03:54.000Z</time>
      </trkpt>
      <trkpt lat="47.97281" lon="7.08609">
        <ele>1033.3</ele>
        <time>2021-03-20T13:04:23.000Z</time>
      </trkpt>
      <trkpt lat="47.97286" lon="7.08598">
        <ele>1036.5</ele>
        <time>2021-03-20T13:05:25.000Z</time>
      </trkpt>
      <trkpt lat="47.97296" lon="7.08601">
        <ele>1035</ele>
        <time>2021-03-20T13:06:21.000Z</time>
      </trkpt>
      <trkpt lat="47.97304" lon="7.08608">
        <ele>1032.6</ele>
        <time>2021-03-20T13:06:47.000Z</time>
      </trkpt>
      <trkpt lat="47.97314" lon="7.08614">
        <ele>1030.3</ele>
        <time>2021-03-20T13:06:57.000Z</time>
      </trkpt>
      <trkpt lat="47.97328" lon="7.08619">
        <ele>1028.4</ele>
        <time>2021-03-20T13:07:02.000Z</time>
      </trkpt>
      <trkpt lat="47.97342" lon="7.08622">
        <ele>1025.1</ele>
        <time>2021-03-20T13:07:07.000Z</time>
      </trkpt>
      <trkpt lat="47.97351" lon="7.08624">
        <ele>1022.1</ele>
        <time>2021-03-20T13:07:27.000Z</time>
      </trkpt>
      <trkpt lat="47.97359" lon="7.08643">
        <ele>1015.6</ele>
        <time>2021-03-20T13:07:32.000Z</time>
      </trkpt>
      <trkpt lat="47.97363" lon="7.08659">
        <ele>1011</ele>
        <time>2021-03-20T13:07:37.000Z</time>
      </trkpt>
      <trkpt lat="47.97372" lon="7.08655">
        <ele>1010.1</ele>
        <time>2021-03-20T13:07:43.000Z</time>
      </trkpt>
      <trkpt lat="47.97379" lon="7.08646">
        <ele>1010.4</ele>
        <time>2021-03-20T13:07:49.000Z</time>
      </trkpt>
      <trkpt lat="47.97387" lon="7.08632">
        <ele>1011.2</ele>
        <time>2021-03-20T13:08:26.000Z</time>
      </trkpt>
      <trkpt lat="47.97396" lon="7.08623">
        <ele>1010.7</ele>
        <time>2021-03-20T13:08:53.000Z</time>
      </trkpt>
      <trkpt lat="47.97406" lon="7.08614">
        <ele>1009.7</ele>
        <time>2021-03-20T13:09:32.000Z</time>
      </trkpt>
      <trkpt lat="47.97409" lon="7.08631">
        <ele>1006.1</ele>
        <time>2021-03-20T13:09:37.000Z</time>
      </trkpt>
      <trkpt lat="47.97403" lon="7.08621">
        <ele>1009.3</ele>
        <time>2021-03-20T13:09:42.000Z</time>
      </trkpt>
      <trkpt lat="47.97408" lon="7.08601">
        <ele>1011</ele>
        <time>2021-03-20T13:11:24.000Z</time>
      </trkpt>
      <trkpt lat="47.97409" lon="7.08585">
        <ele>1013.2</ele>
        <time>2021-03-20T13:12:29.000Z</time>
      </trkpt>
      <trkpt lat="47.97402" lon="7.08592">
        <ele>1014.4</ele>
        <time>2021-03-20T13:12:57.000Z</time>
      </trkpt>
      <trkpt lat="47.97392" lon="7.08604">
        <ele>1015.3</ele>
        <time>2021-03-20T13:15:35.000Z</time>
      </trkpt>
      <trkpt lat="47.97399" lon="7.08594">
        <ele>1014.9</ele>
        <time>2021-03-20T13:17:09.000Z</time>
      </trkpt>
      <trkpt lat="47.97408" lon="7.08588">
        <ele>1013.3</ele>
        <time>2021-03-20T13:17:56.000Z</time>
      </trkpt>
      <trkpt lat="47.97416" lon="7.08579">
        <ele>1012</ele>
        <time>2021-03-20T13:18:03.000Z</time>
      </trkpt>
      <trkpt lat="47.97424" lon="7.08568">
        <ele>1010.6</ele>
        <time>2021-03-20T13:18:08.000Z</time>
      </trkpt>
      <trkpt lat="47.97442" lon="7.08548">
        <ele>1006.8</ele>
        <time>2021-03-20T13:18:13.000Z</time>
      </trkpt>
      <trkpt lat="47.97456" lon="7.08534">
        <ele>1003.9</ele>
        <time>2021-03-20T13:18:18.000Z</time>
      </trkpt>
      <trkpt lat="47.9747" lon="7.08522">
        <ele>1000.8</ele>
        <time>2021-03-20T13:18:23.000Z</time>
      </trkpt>
      <trkpt lat="47.97484" lon="7.08507">
        <ele>998.4</ele>
        <time>2021-03-20T13:18:28.000Z</time>
      </trkpt>
      <trkpt lat="47.97506" lon="7.08485">
        <ele>993.4</ele>
        <time>2021-03-20T13:18:33.000Z</time>
      </trkpt>
      <trkpt lat="47.97531" lon="7.08463">
        <ele>988.5</ele>
        <time>2021-03-20T13:18:38.000Z</time>
      </trkpt>
      <trkpt lat="47.97552" lon="7.08447">
        <ele>984.9</ele>
        <time>2021-03-20T13:18:43.000Z</time>
      </trkpt>
      <trkpt lat="47.97567" lon="7.0843">
        <ele>983.3</ele>
        <time>2021-03-20T13:18:48.000Z</time>
      </trkpt>
      <trkpt lat="47.97577" lon="7.08418">
        <ele>982.3</ele>
        <time>2021-03-20T13:18:53.000Z</time>
      </trkpt>
      <trkpt lat="47.9759" lon="7.08404">
        <ele>979.9</ele>
        <time>2021-03-20T13:18:58.000Z</time>
      </trkpt>
      <trkpt lat="47.97603" lon="7.0839">
        <ele>977.7</ele>
        <time>2021-03-20T13:19:03.000Z</time>
      </trkpt>
      <trkpt lat="47.97613" lon="7.08376">
        <ele>976.3</ele>
        <time>2021-03-20T13:19:08.000Z</time>
      </trkpt>
      <trkpt lat="47.9762" lon="7.08365">
        <ele>975.6</ele>
        <time>2021-03-20T13:19:13.000Z</time>
      </trkpt>
      <trkpt lat="47.97629" lon="7.08352">
        <ele>974.7</ele>
        <time>2021-03-20T13:19:18.000Z</time>
      </trkpt>
      <trkpt lat="47.97651" lon="7.08337">
        <ele>971.7</ele>
        <time>2021-03-20T13:19:23.000Z</time>
      </trkpt>
      <trkpt lat="47.97678" lon="7.08322">
        <ele>966.6</ele>
        <time>2021-03-20T13:19:28.000Z</time>
      </trkpt>
      <trkpt lat="47.97707" lon="7.08315">
        <ele>959.8</ele>
        <time>2021-03-20T13:19:33.000Z</time>
      </trkpt>
      <trkpt lat="47.97721" lon="7.0829">
        <ele>956.4</ele>
        <time>2021-03-20T13:19:38.000Z</time>
      </trkpt>
      <trkpt lat="47.97727" lon="7.08266">
        <ele>954.9</ele>
        <time>2021-03-20T13:19:43.000Z</time>
      </trkpt>
      <trkpt lat="47.97731" lon="7.08252">
        <ele>953.8</ele>
        <time>2021-03-20T13:19:50.000Z</time>
      </trkpt>
      <trkpt lat="47.97735" lon="7.08234">
        <ele>952.7</ele>
        <time>2021-03-20T13:20:22.000Z</time>
      </trkpt>
      <trkpt lat="47.97746" lon="7.0822">
        <ele>949.9</ele>
        <time>2021-03-20T13:20:27.000Z</time>
      </trkpt>
      <trkpt lat="47.97755" lon="7.08196">
        <ele>947.8</ele>
        <time>2021-03-20T13:20:32.000Z</time>
      </trkpt>
      <trkpt lat="47.97762" lon="7.08176">
        <ele>946.4</ele>
        <time>2021-03-20T13:20:37.000Z</time>
      </trkpt>
      <trkpt lat="47.97781" lon="7.08156">
        <ele>941.6</ele>
        <time>2021-03-20T13:20:42.000Z</time>
      </trkpt>
      <trkpt lat="47.97801" lon="7.08136">
        <ele>936.6</ele>
        <time>2021-03-20T13:20:47.000Z</time>
      </trkpt>
      <trkpt lat="47.97807" lon="7.08149">
        <ele>934.6</ele>
        <time>2021-03-20T13:20:52.000Z</time>
      </trkpt>
      <trkpt lat="47.97816" lon="7.08151">
        <ele>932</ele>
        <time>2021-03-20T13:21:12.000Z</time>
      </trkpt>
      <trkpt lat="47.97827" lon="7.08131">
        <ele>929.2</ele>
        <time>2021-03-20T13:21:17.000Z</time>
      </trkpt>
      <trkpt lat="47.9784" lon="7.08104">
        <ele>925.5</ele>
        <time>2021-03-20T13:21:22.000Z</time>
      </trkpt>
      <trkpt lat="47.97854" lon="7.08076">
        <ele>921.2</ele>
        <time>2021-03-20T13:21:27.000Z</time>
      </trkpt>
      <trkpt lat="47.97863" lon="7.08051">
        <ele>918</ele>
        <time>2021-03-20T13:21:32.000Z</time>
      </trkpt>
      <trkpt lat="47.97884" lon="7.08043">
        <ele>911.6</ele>
        <time>2021-03-20T13:21:37.000Z</time>
      </trkpt>
      <trkpt lat="47.97901" lon="7.08017">
        <ele>906.9</ele>
        <time>2021-03-20T13:21:42.000Z</time>
      </trkpt>
      <trkpt lat="47.97919" lon="7.08026">
        <ele>901.4</ele>
        <time>2021-03-20T13:21:47.000Z</time>
      </trkpt>
      <trkpt lat="47.97944" lon="7.08039">
        <ele>893.6</ele>
        <time>2021-03-20T13:21:52.000Z</time>
      </trkpt>
      <trkpt lat="47.97969" lon="7.08031">
        <ele>886.4</ele>
        <time>2021-03-20T13:21:57.000Z</time>
      </trkpt>
      <trkpt lat="47.97999" lon="7.08021">
        <ele>877.5</ele>
        <time>2021-03-20T13:22:02.000Z</time>
      </trkpt>
      <trkpt lat="47.98022" lon="7.07996">
        <ele>871.9</ele>
        <time>2021-03-20T13:22:07.000Z</time>
      </trkpt>
      <trkpt lat="47.98031" lon="7.07973">
        <ele>869.4</ele>
        <time>2021-03-20T13:22:12.000Z</time>
      </trkpt>
      <trkpt lat="47.98031" lon="7.07952">
        <ele>869.2</ele>
        <time>2021-03-20T13:23:56.000Z</time>
      </trkpt>
      <trkpt lat="47.98035" lon="7.0794">
        <ele>867.8</ele>
        <time>2021-03-20T13:26:16.000Z</time>
      </trkpt>
      <trkpt lat="47.98045" lon="7.07917">
        <ele>864.7</ele>
        <time>2021-03-20T13:26:21.000Z</time>
      </trkpt>
      <trkpt lat="47.98054" lon="7.07892">
        <ele>861.8</ele>
        <time>2021-03-20T13:26:26.000Z</time>
      </trkpt>
      <trkpt lat="47.98054" lon="7.07869">
        <ele>861.7</ele>
        <time>2021-03-20T13:26:31.000Z</time>
      </trkpt>
      <trkpt lat="47.98048" lon="7.07854">
        <ele>863.2</ele>
        <time>2021-03-20T13:26:36.000Z</time>
      </trkpt>
      <trkpt lat="47.98048" lon="7.07834">
        <ele>863</ele>
        <time>2021-03-20T13:26:41.000Z</time>
      </trkpt>
      <trkpt lat="47.98044" lon="7.07806">
        <ele>862.7</ele>
        <time>2021-03-20T13:27:26.000Z</time>
      </trkpt>
      <trkpt lat="47.98043" lon="7.07804">
        <ele>863</ele>
        <time>2021-03-20T13:27:37.000Z</time>
      </trkpt>
    </trkseg>
  </trk>
</gpx>